<?xml version='1.0' encoding='UTF-8'?>
<gpx version="1.1" creator="https://www.komoot.de" xmlns="http://www.topografix.com/GPX/1/1" xmlns:xsi="http://www.w3.org/2001/XMLSchema-instance" xsi:schemaLocation="http://www.topografix.com/GPX/1/1 http://www.topografix.com/GPX/1/1/gpx.xsd">
  <metadata>
    <name>12.09.2026 Braunschweig Kompakte Kulinarische Schnitzeljagd</name>
    <author>
      <link href="https://www.komoot.de">
        <text>komoot</text>
        <type>text/html</type>
      </link>
    </author>
  </metadata>
  <wpt lat="52.212629" lon="10.522903">
    <name>Alpakadorf Lädchen &amp; Cafe</name>
    <sym>Restaurant</sym>
  </wpt>
  <wpt lat="52.236829" lon="10.477653">
    <name>Fortuna</name>
    <sym>Restaurant</sym>
  </wpt>
  <wpt lat="52.253574" lon="10.487550">
    <name>Am Westpark</name>
    <desc></desc>
    <sym>Restaurant</sym>
  </wpt>
  <wpt lat="52.261451" lon="10.508446">
    <name>Grünes Lädchen</name>
    <sym>Restaurant</sym>
  </wpt>
  <wpt lat="52.263968" lon="10.522892">
    <name>Winzerli</name>
    <sym>Restaurant</sym>
  </wpt>
  <wpt lat="52.265510" lon="10.528799">
    <name>LiquidStory</name>
    <sym>Restaurant</sym>
  </wpt>
  <wpt lat="52.258925" lon="10.527919">
    <name>Der kleine Vegetarier 2</name>
    <desc></desc>
    <sym>Flag, Blue</sym>
  </wpt>
  <wpt lat="52.222834" lon="10.517107">
    <name>Mumm Eismanufaktur</name>
    <desc></desc>
    <sym>Restaurant</sym>
  </wpt>
  <trk>
    <name>12.09.2026 Braunschweig Kompakte Kulinarische Schnitzeljagd</name>
    <type>touring_bicycle</type>
    <trkseg>
      <trkpt lat="52.212618" lon="10.522844">
        <ele>75.805971</ele>
        <time>2026-08-19T07:26:40.013Z</time>
      </trkpt>
      <trkpt lat="52.212668" lon="10.522820">
        <ele>75.805971</ele>
        <time>2026-08-19T07:26:42.028Z</time>
      </trkpt>
      <trkpt lat="52.212760" lon="10.522771">
        <ele>75.805971</ele>
        <time>2026-08-19T07:26:45.707Z</time>
      </trkpt>
      <trkpt lat="52.212839" lon="10.522728">
        <ele>75.805971</ele>
        <time>2026-08-19T07:26:48.923Z</time>
      </trkpt>
      <trkpt lat="52.212994" lon="10.522556">
        <ele>75.805971</ele>
        <time>2026-08-19T07:26:56.081Z</time>
      </trkpt>
      <trkpt lat="52.212978" lon="10.522519">
        <ele>75.805971</ele>
        <time>2026-08-19T07:26:56.698Z</time>
      </trkpt>
      <trkpt lat="52.212954" lon="10.522464">
        <ele>75.805971</ele>
        <time>2026-08-19T07:26:57.692Z</time>
      </trkpt>
      <trkpt lat="52.212932" lon="10.522414">
        <ele>75.805971</ele>
        <time>2026-08-19T07:26:58.620Z</time>
      </trkpt>
      <trkpt lat="52.212890" lon="10.522318">
        <ele>75.805971</ele>
        <time>2026-08-19T07:27:00.347Z</time>
      </trkpt>
      <trkpt lat="52.212846" lon="10.522218">
        <ele>75.805971</ele>
        <time>2026-08-19T07:27:02.198Z</time>
      </trkpt>
      <trkpt lat="52.212789" lon="10.522293">
        <ele>75.805971</ele>
        <time>2026-08-19T07:27:04.951Z</time>
      </trkpt>
      <trkpt lat="52.212559" lon="10.521704">
        <ele>75.753302</ele>
        <time>2026-08-19T07:27:17.411Z</time>
      </trkpt>
      <trkpt lat="52.212445" lon="10.521334">
        <ele>75.704879</ele>
        <time>2026-08-19T07:27:24.494Z</time>
      </trkpt>
      <trkpt lat="52.212305" lon="10.520853">
        <ele>75.642616</ele>
        <time>2026-08-19T07:27:33.774Z</time>
      </trkpt>
      <trkpt lat="52.212168" lon="10.520477">
        <ele>75.591467</ele>
        <time>2026-08-19T07:27:41.414Z</time>
      </trkpt>
      <trkpt lat="52.212121" lon="10.520431">
        <ele>75.581010</ele>
        <time>2026-08-19T07:27:43.038Z</time>
      </trkpt>
      <trkpt lat="52.211923" lon="10.520007">
        <ele>75.518678</ele>
        <time>2026-08-19T07:27:52.265Z</time>
      </trkpt>
      <trkpt lat="52.211896" lon="10.519951">
        <ele>75.510346</ele>
        <time>2026-08-19T07:27:53.478Z</time>
      </trkpt>
      <trkpt lat="52.211996" lon="10.519822">
        <ele>75.486022</ele>
        <time>2026-08-19T07:27:56.169Z</time>
      </trkpt>
      <trkpt lat="52.212679" lon="10.518961">
        <ele>74.927406</ele>
        <time>2026-08-19T07:28:14.086Z</time>
      </trkpt>
      <trkpt lat="52.213029" lon="10.518532">
        <ele>74.611203</ele>
        <time>2026-08-19T07:28:23.208Z</time>
      </trkpt>
      <trkpt lat="52.213111" lon="10.518430">
        <ele>74.536723</ele>
        <time>2026-08-19T07:28:25.306Z</time>
      </trkpt>
      <trkpt lat="52.213814" lon="10.517556">
        <ele>73.779714</ele>
        <time>2026-08-19T07:28:41.753Z</time>
      </trkpt>
      <trkpt lat="52.214085" lon="10.517175">
        <ele>73.405727</ele>
        <time>2026-08-19T07:28:48.278Z</time>
      </trkpt>
      <trkpt lat="52.214104" lon="10.517144">
        <ele>73.377637</ele>
        <time>2026-08-19T07:28:48.772Z</time>
      </trkpt>
      <trkpt lat="52.214419" lon="10.516405">
        <ele>72.800909</ele>
        <time>2026-08-19T07:28:59.129Z</time>
      </trkpt>
      <trkpt lat="52.215291" lon="10.514318">
        <ele>72.065567</ele>
        <time>2026-08-19T07:29:31.552Z</time>
      </trkpt>
      <trkpt lat="52.215468" lon="10.513900">
        <ele>72.001295</ele>
        <time>2026-08-19T07:29:38.514Z</time>
      </trkpt>
      <trkpt lat="52.215864" lon="10.512990">
        <ele>71.969583</ele>
        <time>2026-08-19T07:29:53.846Z</time>
      </trkpt>
      <trkpt lat="52.216122" lon="10.512630">
        <ele>72.048885</ele>
        <time>2026-08-19T07:30:01.508Z</time>
      </trkpt>
      <trkpt lat="52.217214" lon="10.511107">
        <ele>72.399985</ele>
        <time>2026-08-19T07:30:35.412Z</time>
      </trkpt>
      <trkpt lat="52.217443" lon="10.510824">
        <ele>72.486820</ele>
        <time>2026-08-19T07:30:42.231Z</time>
      </trkpt>
      <trkpt lat="52.217596" lon="10.510708">
        <ele>72.537820</ele>
        <time>2026-08-19T07:30:46.236Z</time>
      </trkpt>
      <trkpt lat="52.217749" lon="10.510648">
        <ele>72.585391</ele>
        <time>2026-08-19T07:30:49.945Z</time>
      </trkpt>
      <trkpt lat="52.218912" lon="10.510610">
        <ele>72.856575</ele>
        <time>2026-08-19T07:31:17.237Z</time>
      </trkpt>
      <trkpt lat="52.219993" lon="10.510574">
        <ele>72.756460</ele>
        <time>2026-08-19T07:31:39.983Z</time>
      </trkpt>
      <trkpt lat="52.220051" lon="10.510558">
        <ele>72.751013</ele>
        <time>2026-08-19T07:31:41.235Z</time>
      </trkpt>
      <trkpt lat="52.220224" lon="10.510416">
        <ele>72.733083</ele>
        <time>2026-08-19T07:31:45.313Z</time>
      </trkpt>
      <trkpt lat="52.220326" lon="10.510267">
        <ele>72.720409</ele>
        <time>2026-08-19T07:31:48.244Z</time>
      </trkpt>
      <trkpt lat="52.220391" lon="10.510124">
        <ele>72.710308</ele>
        <time>2026-08-19T07:31:50.688Z</time>
      </trkpt>
      <trkpt lat="52.220474" lon="10.509806">
        <ele>72.890130</ele>
        <time>2026-08-19T07:31:55.900Z</time>
      </trkpt>
      <trkpt lat="52.220596" lon="10.509156">
        <ele>73.274125</ele>
        <time>2026-08-19T07:32:06.367Z</time>
      </trkpt>
      <trkpt lat="52.220646" lon="10.508675">
        <ele>73.549698</ele>
        <time>2026-08-19T07:32:13.465Z</time>
      </trkpt>
      <trkpt lat="52.220625" lon="10.508443">
        <ele>73.682165</ele>
        <time>2026-08-19T07:32:17.133Z</time>
      </trkpt>
      <trkpt lat="52.220596" lon="10.508199">
        <ele>73.822557</ele>
        <time>2026-08-19T07:32:21.481Z</time>
      </trkpt>
      <trkpt lat="52.220518" lon="10.507952">
        <ele>73.979518</ele>
        <time>2026-08-19T07:32:26.520Z</time>
      </trkpt>
      <trkpt lat="52.220418" lon="10.507683">
        <ele>74.157248</ele>
        <time>2026-08-19T07:32:32.327Z</time>
      </trkpt>
      <trkpt lat="52.220326" lon="10.507610">
        <ele>74.251564</ele>
        <time>2026-08-19T07:32:35.324Z</time>
      </trkpt>
      <trkpt lat="52.220204" lon="10.507514">
        <ele>74.375012</ele>
        <time>2026-08-19T07:32:39.286Z</time>
      </trkpt>
      <trkpt lat="52.220021" lon="10.507417">
        <ele>74.524837</ele>
        <time>2026-08-19T07:32:45.270Z</time>
      </trkpt>
      <trkpt lat="52.219981" lon="10.507345">
        <ele>74.571204</ele>
        <time>2026-08-19T07:32:47.118Z</time>
      </trkpt>
      <trkpt lat="52.219963" lon="10.507331">
        <ele>74.586730</ele>
        <time>2026-08-19T07:32:47.706Z</time>
      </trkpt>
      <trkpt lat="52.220017" lon="10.507309">
        <ele>74.630069</ele>
        <time>2026-08-19T07:32:49.393Z</time>
      </trkpt>
      <trkpt lat="52.220065" lon="10.507149">
        <ele>74.715057</ele>
        <time>2026-08-19T07:32:52.663Z</time>
      </trkpt>
      <trkpt lat="52.220064" lon="10.506941">
        <ele>74.814286</ele>
        <time>2026-08-19T07:32:56.390Z</time>
      </trkpt>
      <trkpt lat="52.220015" lon="10.506502">
        <ele>75.027158</ele>
        <time>2026-08-19T07:33:03.838Z</time>
      </trkpt>
      <trkpt lat="52.220051" lon="10.506348">
        <ele>75.105790</ele>
        <time>2026-08-19T07:33:06.437Z</time>
      </trkpt>
      <trkpt lat="52.219837" lon="10.505879">
        <ele>75.384763</ele>
        <time>2026-08-19T07:33:16.196Z</time>
      </trkpt>
      <trkpt lat="52.219772" lon="10.505610">
        <ele>75.522711</ele>
        <time>2026-08-19T07:33:20.971Z</time>
      </trkpt>
      <trkpt lat="52.219712" lon="10.504343">
        <ele>76.142790</ele>
        <time>2026-08-19T07:33:40.148Z</time>
      </trkpt>
      <trkpt lat="52.219554" lon="10.503946">
        <ele>76.377298</ele>
        <time>2026-08-19T07:33:47.780Z</time>
      </trkpt>
      <trkpt lat="52.219332" lon="10.503541">
        <ele>76.646498</ele>
        <time>2026-08-19T07:33:58.800Z</time>
      </trkpt>
      <trkpt lat="52.219234" lon="10.503298">
        <ele>76.790610</ele>
        <time>2026-08-19T07:34:04.884Z</time>
      </trkpt>
      <trkpt lat="52.218927" lon="10.503049">
        <ele>77.067794</ele>
        <time>2026-08-19T07:34:16.602Z</time>
      </trkpt>
      <trkpt lat="52.219045" lon="10.502892">
        <ele>77.190886</ele>
        <time>2026-08-19T07:34:20.822Z</time>
      </trkpt>
      <trkpt lat="52.219136" lon="10.502676">
        <ele>77.287538</ele>
        <time>2026-08-19T07:34:25.459Z</time>
      </trkpt>
      <trkpt lat="52.219299" lon="10.502181">
        <ele>77.472155</ele>
        <time>2026-08-19T07:34:35.635Z</time>
      </trkpt>
      <trkpt lat="52.219321" lon="10.502081">
        <ele>77.507061</ele>
        <time>2026-08-19T07:34:37.525Z</time>
      </trkpt>
      <trkpt lat="52.219351" lon="10.502011">
        <ele>77.535125</ele>
        <time>2026-08-19T07:34:39.044Z</time>
      </trkpt>
      <trkpt lat="52.218725" lon="10.501801">
        <ele>77.877820</ele>
        <time>2026-08-19T07:35:00.337Z</time>
      </trkpt>
      <trkpt lat="52.218176" lon="10.501667">
        <ele>78.175483</ele>
        <time>2026-08-19T07:35:15.619Z</time>
      </trkpt>
      <trkpt lat="52.217560" lon="10.501524">
        <ele>77.364721</ele>
        <time>2026-08-19T07:35:31.056Z</time>
      </trkpt>
      <trkpt lat="52.217253" lon="10.501448">
        <ele>76.940339</ele>
        <time>2026-08-19T07:35:38.548Z</time>
      </trkpt>
      <trkpt lat="52.217017" lon="10.501394">
        <ele>76.614638</ele>
        <time>2026-08-19T07:35:44.272Z</time>
      </trkpt>
      <trkpt lat="52.216558" lon="10.501268">
        <ele>75.978501</ele>
        <time>2026-08-19T07:35:55.811Z</time>
      </trkpt>
      <trkpt lat="52.216493" lon="10.501203">
        <ele>75.874317</ele>
        <time>2026-08-19T07:35:57.389Z</time>
      </trkpt>
      <trkpt lat="52.216494" lon="10.501096">
        <ele>75.784708</ele>
        <time>2026-08-19T07:35:58.688Z</time>
      </trkpt>
      <trkpt lat="52.216589" lon="10.500186">
        <ele>75.828965</ele>
        <time>2026-08-19T07:36:10.500Z</time>
      </trkpt>
      <trkpt lat="52.216533" lon="10.500167">
        <ele>75.839934</ele>
        <time>2026-08-19T07:36:12.076Z</time>
      </trkpt>
      <trkpt lat="52.216601" lon="10.499567">
        <ele>75.911632</ele>
        <time>2026-08-19T07:36:20.859Z</time>
      </trkpt>
      <trkpt lat="52.216693" lon="10.498749">
        <ele>76.009355</ele>
        <time>2026-08-19T07:36:33.757Z</time>
      </trkpt>
      <trkpt lat="52.216891" lon="10.497001">
        <ele>76.957290</ele>
        <time>2026-08-19T07:37:03.509Z</time>
      </trkpt>
      <trkpt lat="52.216983" lon="10.496192">
        <ele>77.547174</ele>
        <time>2026-08-19T07:37:17.258Z</time>
      </trkpt>
      <trkpt lat="52.216957" lon="10.496129">
        <ele>77.601630</ele>
        <time>2026-08-19T07:37:18.514Z</time>
      </trkpt>
      <trkpt lat="52.216965" lon="10.496022">
        <ele>77.678908</ele>
        <time>2026-08-19T07:37:20.274Z</time>
      </trkpt>
      <trkpt lat="52.217013" lon="10.495562">
        <ele>78.013434</ele>
        <time>2026-08-19T07:37:27.832Z</time>
      </trkpt>
      <trkpt lat="52.217289" lon="10.493052">
        <ele>79.800229</ele>
        <time>2026-08-19T07:38:08.209Z</time>
      </trkpt>
      <trkpt lat="52.217278" lon="10.492637">
        <ele>80.090613</ele>
        <time>2026-08-19T07:38:15.659Z</time>
      </trkpt>
      <trkpt lat="52.217265" lon="10.492558">
        <ele>80.147797</ele>
        <time>2026-08-19T07:38:17.124Z</time>
      </trkpt>
      <trkpt lat="52.217309" lon="10.492480">
        <ele>80.221917</ele>
        <time>2026-08-19T07:38:20.054Z</time>
      </trkpt>
      <trkpt lat="52.217386" lon="10.492267">
        <ele>80.442468</ele>
        <time>2026-08-19T07:38:26.789Z</time>
      </trkpt>
      <trkpt lat="52.217442" lon="10.491826">
        <ele>80.848518</ele>
        <time>2026-08-19T07:38:39.106Z</time>
      </trkpt>
      <trkpt lat="52.217546" lon="10.490840">
        <ele>81.750558</ele>
        <time>2026-08-19T07:39:06.625Z</time>
      </trkpt>
      <trkpt lat="52.217787" lon="10.489241">
        <ele>83.101018</ele>
        <time>2026-08-19T07:39:48.399Z</time>
      </trkpt>
      <trkpt lat="52.218784" lon="10.488037">
        <ele>84.242270</ele>
        <time>2026-08-19T07:40:37.341Z</time>
      </trkpt>
      <trkpt lat="52.219140" lon="10.487688">
        <ele>84.649132</ele>
        <time>2026-08-19T07:40:54.890Z</time>
      </trkpt>
      <trkpt lat="52.219868" lon="10.486974">
        <ele>85.640352</ele>
        <time>2026-08-19T07:41:32.183Z</time>
      </trkpt>
      <trkpt lat="52.220527" lon="10.486077">
        <ele>86.627818</ele>
        <time>2026-08-19T07:42:07.660Z</time>
      </trkpt>
      <trkpt lat="52.220609" lon="10.485656">
        <ele>86.517377</ele>
        <time>2026-08-19T07:42:17.866Z</time>
      </trkpt>
      <trkpt lat="52.220630" lon="10.484900">
        <ele>86.328183</ele>
        <time>2026-08-19T07:42:34.475Z</time>
      </trkpt>
      <trkpt lat="52.220688" lon="10.482871">
        <ele>85.760227</ele>
        <time>2026-08-19T07:43:16.962Z</time>
      </trkpt>
      <trkpt lat="52.220883" lon="10.482249">
        <ele>85.449193</ele>
        <time>2026-08-19T07:43:31.828Z</time>
      </trkpt>
      <trkpt lat="52.221272" lon="10.482020">
        <ele>85.148713</ele>
        <time>2026-08-19T07:43:46.522Z</time>
      </trkpt>
      <trkpt lat="52.221476" lon="10.481415">
        <ele>84.841300</ele>
        <time>2026-08-19T07:44:01.857Z</time>
      </trkpt>
      <trkpt lat="52.221726" lon="10.480034">
        <ele>83.858855</ele>
        <time>2026-08-19T07:44:30.973Z</time>
      </trkpt>
      <trkpt lat="52.221859" lon="10.480046">
        <ele>83.677376</ele>
        <time>2026-08-19T07:44:35.118Z</time>
      </trkpt>
      <trkpt lat="52.222959" lon="10.480142">
        <ele>82.176571</ele>
        <time>2026-08-19T07:45:10.277Z</time>
      </trkpt>
      <trkpt lat="52.223122" lon="10.480209">
        <ele>82.337891</ele>
        <time>2026-08-19T07:45:15.975Z</time>
      </trkpt>
      <trkpt lat="52.223900" lon="10.480251">
        <ele>83.428761</ele>
        <time>2026-08-19T07:45:46.710Z</time>
      </trkpt>
      <trkpt lat="52.227191" lon="10.480542">
        <ele>92.582605</ele>
        <time>2026-08-19T07:47:38.780Z</time>
      </trkpt>
      <trkpt lat="52.227767" lon="10.480591">
        <ele>95.035660</ele>
        <time>2026-08-19T07:48:07.833Z</time>
      </trkpt>
      <trkpt lat="52.228606" lon="10.480662">
        <ele>97.825558</ele>
        <time>2026-08-19T07:48:49.375Z</time>
      </trkpt>
      <trkpt lat="52.228838" lon="10.480678">
        <ele>98.044043</ele>
        <time>2026-08-19T07:48:58.003Z</time>
      </trkpt>
      <trkpt lat="52.228942" lon="10.480674">
        <ele>98.141924</ele>
        <time>2026-08-19T07:49:01.630Z</time>
      </trkpt>
      <trkpt lat="52.228977" lon="10.480676">
        <ele>98.174875</ele>
        <time>2026-08-19T07:49:02.866Z</time>
      </trkpt>
      <trkpt lat="52.229301" lon="10.480703">
        <ele>98.480125</ele>
        <time>2026-08-19T07:49:12.697Z</time>
      </trkpt>
      <trkpt lat="52.229570" lon="10.480725">
        <ele>98.733545</ele>
        <time>2026-08-19T07:49:19.120Z</time>
      </trkpt>
      <trkpt lat="52.229665" lon="10.480732">
        <ele>98.823022</ele>
        <time>2026-08-19T07:49:20.986Z</time>
      </trkpt>
      <trkpt lat="52.229710" lon="10.480736">
        <ele>98.865426</ele>
        <time>2026-08-19T07:49:21.834Z</time>
      </trkpt>
      <trkpt lat="52.229723" lon="10.480737">
        <ele>98.877671</ele>
        <time>2026-08-19T07:49:22.080Z</time>
      </trkpt>
      <trkpt lat="52.230518" lon="10.480805">
        <ele>97.932848</ele>
        <time>2026-08-19T07:49:35.064Z</time>
      </trkpt>
      <trkpt lat="52.230567" lon="10.480809">
        <ele>97.742986</ele>
        <time>2026-08-19T07:49:35.843Z</time>
      </trkpt>
      <trkpt lat="52.230624" lon="10.480814">
        <ele>97.522084</ele>
        <time>2026-08-19T07:49:36.741Z</time>
      </trkpt>
      <trkpt lat="52.230756" lon="10.480826">
        <ele>97.010466</ele>
        <time>2026-08-19T07:49:38.836Z</time>
      </trkpt>
      <trkpt lat="52.230772" lon="10.480827">
        <ele>96.948502</ele>
        <time>2026-08-19T07:49:39.079Z</time>
      </trkpt>
      <trkpt lat="52.231056" lon="10.480852">
        <ele>95.847855</ele>
        <time>2026-08-19T07:49:43.533Z</time>
      </trkpt>
      <trkpt lat="52.231198" lon="10.480864">
        <ele>95.297594</ele>
        <time>2026-08-19T07:49:45.753Z</time>
      </trkpt>
      <trkpt lat="52.231315" lon="10.480875">
        <ele>94.844065</ele>
        <time>2026-08-19T07:49:47.586Z</time>
      </trkpt>
      <trkpt lat="52.232574" lon="10.480982">
        <ele>90.355462</ele>
        <time>2026-08-19T07:50:07.047Z</time>
      </trkpt>
      <trkpt lat="52.232712" lon="10.480993">
        <ele>89.908824</ele>
        <time>2026-08-19T07:50:09.233Z</time>
      </trkpt>
      <trkpt lat="52.232927" lon="10.481021">
        <ele>89.211597</ele>
        <time>2026-08-19T07:50:12.631Z</time>
      </trkpt>
      <trkpt lat="52.232967" lon="10.481024">
        <ele>89.082154</ele>
        <time>2026-08-19T07:50:13.272Z</time>
      </trkpt>
      <trkpt lat="52.232999" lon="10.481014">
        <ele>88.976832</ele>
        <time>2026-08-19T07:50:13.785Z</time>
      </trkpt>
      <trkpt lat="52.233034" lon="10.481007">
        <ele>88.862843</ele>
        <time>2026-08-19T07:50:14.344Z</time>
      </trkpt>
      <trkpt lat="52.233365" lon="10.480967">
        <ele>87.789909</ele>
        <time>2026-08-19T07:50:19.763Z</time>
      </trkpt>
      <trkpt lat="52.233677" lon="10.480933">
        <ele>86.779078</ele>
        <time>2026-08-19T07:50:25.209Z</time>
      </trkpt>
      <trkpt lat="52.233919" lon="10.480901">
        <ele>86.473675</ele>
        <time>2026-08-19T07:50:29.842Z</time>
      </trkpt>
      <trkpt lat="52.234002" lon="10.480887">
        <ele>86.449690</ele>
        <time>2026-08-19T07:50:31.562Z</time>
      </trkpt>
      <trkpt lat="52.234099" lon="10.480878">
        <ele>86.421762</ele>
        <time>2026-08-19T07:50:33.676Z</time>
      </trkpt>
      <trkpt lat="52.234128" lon="10.480124">
        <ele>86.288760</ele>
        <time>2026-08-19T07:50:44.703Z</time>
      </trkpt>
      <trkpt lat="52.234174" lon="10.479444">
        <ele>86.168320</ele>
        <time>2026-08-19T07:50:55.015Z</time>
      </trkpt>
      <trkpt lat="52.234375" lon="10.478438">
        <ele>85.843192</ele>
        <time>2026-08-19T07:51:10.123Z</time>
      </trkpt>
      <trkpt lat="52.234579" lon="10.477476">
        <ele>84.501932</ele>
        <time>2026-08-19T07:51:21.064Z</time>
      </trkpt>
      <trkpt lat="52.234656" lon="10.477098">
        <ele>83.977094</ele>
        <time>2026-08-19T07:51:25.107Z</time>
      </trkpt>
      <trkpt lat="52.234697" lon="10.477080">
        <ele>83.885760</ele>
        <time>2026-08-19T07:51:25.794Z</time>
      </trkpt>
      <trkpt lat="52.235169" lon="10.477127">
        <ele>82.868481</ele>
        <time>2026-08-19T07:51:33.548Z</time>
      </trkpt>
      <trkpt lat="52.235343" lon="10.477147">
        <ele>82.493237</ele>
        <time>2026-08-19T07:51:36.467Z</time>
      </trkpt>
      <trkpt lat="52.235414" lon="10.477155">
        <ele>82.340134</ele>
        <time>2026-08-19T07:51:37.657Z</time>
      </trkpt>
      <trkpt lat="52.235613" lon="10.477176">
        <ele>81.992340</ele>
        <time>2026-08-19T07:51:40.981Z</time>
      </trkpt>
      <trkpt lat="52.235954" lon="10.477229">
        <ele>81.523808</ele>
        <time>2026-08-19T07:51:46.924Z</time>
      </trkpt>
      <trkpt lat="52.236161" lon="10.477312">
        <ele>81.232260</ele>
        <time>2026-08-19T07:51:50.805Z</time>
      </trkpt>
      <trkpt lat="52.236398" lon="10.477434">
        <ele>80.892362</ele>
        <time>2026-08-19T07:51:55.562Z</time>
      </trkpt>
      <trkpt lat="52.236685" lon="10.477588">
        <ele>80.479149</ele>
        <time>2026-08-19T07:52:01.625Z</time>
      </trkpt>
      <trkpt lat="52.236829" lon="10.477653">
        <ele>80.274797</ele>
        <time>2026-08-19T07:52:04.596Z</time>
      </trkpt>
      <trkpt lat="52.237538" lon="10.477975">
        <ele>79.541991</ele>
        <time>2026-08-19T07:52:19.248Z</time>
      </trkpt>
      <trkpt lat="52.237568" lon="10.478124">
        <ele>79.499273</ele>
        <time>2026-08-19T07:52:21.812Z</time>
      </trkpt>
      <trkpt lat="52.237614" lon="10.478221">
        <ele>79.465860</ele>
        <time>2026-08-19T07:52:23.806Z</time>
      </trkpt>
      <trkpt lat="52.237683" lon="10.478323">
        <ele>79.424466</ele>
        <time>2026-08-19T07:52:26.300Z</time>
      </trkpt>
      <trkpt lat="52.237843" lon="10.478433">
        <ele>79.347258</ele>
        <time>2026-08-19T07:52:30.979Z</time>
      </trkpt>
      <trkpt lat="52.238076" lon="10.478535">
        <ele>79.239975</ele>
        <time>2026-08-19T07:52:37.566Z</time>
      </trkpt>
      <trkpt lat="52.238233" lon="10.478592">
        <ele>79.168446</ele>
        <time>2026-08-19T07:52:42.015Z</time>
      </trkpt>
      <trkpt lat="52.238327" lon="10.478584">
        <ele>79.126584</ele>
        <time>2026-08-19T07:52:44.590Z</time>
      </trkpt>
      <trkpt lat="52.238809" lon="10.478211">
        <ele>78.889367</ele>
        <time>2026-08-19T07:52:59.469Z</time>
      </trkpt>
      <trkpt lat="52.238870" lon="10.478190">
        <ele>78.891931</ele>
        <time>2026-08-19T07:53:01.309Z</time>
      </trkpt>
      <trkpt lat="52.239003" lon="10.478185">
        <ele>78.978111</ele>
        <time>2026-08-19T07:53:05.372Z</time>
      </trkpt>
      <trkpt lat="52.239078" lon="10.478380">
        <ele>79.069457</ele>
        <time>2026-08-19T07:53:08.917Z</time>
      </trkpt>
      <trkpt lat="52.239139" lon="10.478492">
        <ele>79.128916</ele>
        <time>2026-08-19T07:53:11.282Z</time>
      </trkpt>
      <trkpt lat="52.239296" lon="10.478654">
        <ele>79.249222</ele>
        <time>2026-08-19T07:53:16.164Z</time>
      </trkpt>
      <trkpt lat="52.239669" lon="10.478762">
        <ele>79.494618</ele>
        <time>2026-08-19T07:53:25.978Z</time>
      </trkpt>
      <trkpt lat="52.239955" lon="10.478778">
        <ele>79.679996</ele>
        <time>2026-08-19T07:53:33.288Z</time>
      </trkpt>
      <trkpt lat="52.240363" lon="10.478762">
        <ele>79.944372</ele>
        <time>2026-08-19T07:53:44.163Z</time>
      </trkpt>
      <trkpt lat="52.240734" lon="10.478738">
        <ele>80.316348</ele>
        <time>2026-08-19T07:53:54.304Z</time>
      </trkpt>
      <trkpt lat="52.240956" lon="10.478799">
        <ele>80.593691</ele>
        <time>2026-08-19T07:54:00.670Z</time>
      </trkpt>
      <trkpt lat="52.241343" lon="10.479016">
        <ele>81.097788</ele>
        <time>2026-08-19T07:54:11.792Z</time>
      </trkpt>
      <trkpt lat="52.241377" lon="10.479039">
        <ele>81.143126</ele>
        <time>2026-08-19T07:54:12.767Z</time>
      </trkpt>
      <trkpt lat="52.241410" lon="10.479061">
        <ele>81.187039</ele>
        <time>2026-08-19T07:54:13.685Z</time>
      </trkpt>
      <trkpt lat="52.241974" lon="10.479429">
        <ele>81.935279</ele>
        <time>2026-08-19T07:54:29.955Z</time>
      </trkpt>
      <trkpt lat="52.242371" lon="10.479680">
        <ele>82.387553</ele>
        <time>2026-08-19T07:54:41.914Z</time>
      </trkpt>
      <trkpt lat="52.242838" lon="10.479976">
        <ele>82.787080</ele>
        <time>2026-08-19T07:54:55.742Z</time>
      </trkpt>
      <trkpt lat="52.243672" lon="10.480499">
        <ele>83.499593</ele>
        <time>2026-08-19T07:55:17.904Z</time>
      </trkpt>
      <trkpt lat="52.244214" lon="10.480847">
        <ele>83.768175</ele>
        <time>2026-08-19T07:55:31.225Z</time>
      </trkpt>
      <trkpt lat="52.244877" lon="10.481266">
        <ele>83.930590</ele>
        <time>2026-08-19T07:55:47.835Z</time>
      </trkpt>
      <trkpt lat="52.244996" lon="10.481340">
        <ele>83.959680</ele>
        <time>2026-08-19T07:55:50.630Z</time>
      </trkpt>
      <trkpt lat="52.245226" lon="10.481482">
        <ele>84.015856</ele>
        <time>2026-08-19T07:55:55.968Z</time>
      </trkpt>
      <trkpt lat="52.245247" lon="10.481492">
        <ele>84.020853</ele>
        <time>2026-08-19T07:55:56.467Z</time>
      </trkpt>
      <trkpt lat="52.245422" lon="10.481568">
        <ele>84.062223</ele>
        <time>2026-08-19T07:56:00.547Z</time>
      </trkpt>
      <trkpt lat="52.245671" lon="10.481641">
        <ele>84.124293</ele>
        <time>2026-08-19T07:56:06.430Z</time>
      </trkpt>
      <trkpt lat="52.245747" lon="10.481638">
        <ele>84.145454</ele>
        <time>2026-08-19T07:56:08.221Z</time>
      </trkpt>
      <trkpt lat="52.246156" lon="10.481591">
        <ele>84.259584</ele>
        <time>2026-08-19T07:56:18.136Z</time>
      </trkpt>
      <trkpt lat="52.246766" lon="10.481307">
        <ele>84.436146</ele>
        <time>2026-08-19T07:56:32.251Z</time>
      </trkpt>
      <trkpt lat="52.247478" lon="10.480930">
        <ele>84.749858</ele>
        <time>2026-08-19T07:56:49.973Z</time>
      </trkpt>
      <trkpt lat="52.248139" lon="10.480585">
        <ele>85.412268</ele>
        <time>2026-08-19T07:57:08.333Z</time>
      </trkpt>
      <trkpt lat="52.248280" lon="10.480507">
        <ele>85.554374</ele>
        <time>2026-08-19T07:57:12.254Z</time>
      </trkpt>
      <trkpt lat="52.248526" lon="10.480375">
        <ele>85.801548</ele>
        <time>2026-08-19T07:57:18.928Z</time>
      </trkpt>
      <trkpt lat="52.249004" lon="10.480334">
        <ele>86.258466</ele>
        <time>2026-08-19T07:57:31.449Z</time>
      </trkpt>
      <trkpt lat="52.249008" lon="10.480413">
        <ele>86.304793</ele>
        <time>2026-08-19T07:57:32.791Z</time>
      </trkpt>
      <trkpt lat="52.249016" lon="10.480586">
        <ele>86.436734</ele>
        <time>2026-08-19T07:57:35.791Z</time>
      </trkpt>
      <trkpt lat="52.249076" lon="10.480581">
        <ele>86.513964</ele>
        <time>2026-08-19T07:57:37.426Z</time>
      </trkpt>
      <trkpt lat="52.249248" lon="10.480559">
        <ele>86.735745</ele>
        <time>2026-08-19T07:57:42.317Z</time>
      </trkpt>
      <trkpt lat="52.249336" lon="10.480554">
        <ele>86.848937</ele>
        <time>2026-08-19T07:57:44.821Z</time>
      </trkpt>
      <trkpt lat="52.249361" lon="10.480462">
        <ele>86.928154</ele>
        <time>2026-08-19T07:57:46.589Z</time>
      </trkpt>
      <trkpt lat="52.249392" lon="10.480412">
        <ele>86.984159</ele>
        <time>2026-08-19T07:57:47.823Z</time>
      </trkpt>
      <trkpt lat="52.249526" lon="10.480295">
        <ele>87.179482</ele>
        <time>2026-08-19T07:57:52.163Z</time>
      </trkpt>
      <trkpt lat="52.249800" lon="10.480242">
        <ele>87.534168</ele>
        <time>2026-08-19T07:58:00.136Z</time>
      </trkpt>
      <trkpt lat="52.249909" lon="10.480197">
        <ele>87.678693</ele>
        <time>2026-08-19T07:58:03.437Z</time>
      </trkpt>
      <trkpt lat="52.249970" lon="10.480183">
        <ele>87.757879</ele>
        <time>2026-08-19T07:58:05.207Z</time>
      </trkpt>
      <trkpt lat="52.250105" lon="10.480150">
        <ele>87.933353</ele>
        <time>2026-08-19T07:58:08.901Z</time>
      </trkpt>
      <trkpt lat="52.250234" lon="10.480150">
        <ele>88.099181</ele>
        <time>2026-08-19T07:58:12.304Z</time>
      </trkpt>
      <trkpt lat="52.250675" lon="10.480151">
        <ele>88.633900</ele>
        <time>2026-08-19T07:58:23.940Z</time>
      </trkpt>
      <trkpt lat="52.251014" lon="10.480213">
        <ele>88.678981</ele>
        <time>2026-08-19T07:58:32.933Z</time>
      </trkpt>
      <trkpt lat="52.251171" lon="10.480258">
        <ele>88.700047</ele>
        <time>2026-08-19T07:58:37.027Z</time>
      </trkpt>
      <trkpt lat="52.251619" lon="10.480403">
        <ele>88.760405</ele>
        <time>2026-08-19T07:58:47.703Z</time>
      </trkpt>
      <trkpt lat="52.251789" lon="10.480462">
        <ele>88.783374</ele>
        <time>2026-08-19T07:58:51.449Z</time>
      </trkpt>
      <trkpt lat="52.251896" lon="10.480518">
        <ele>88.798223</ele>
        <time>2026-08-19T07:58:53.871Z</time>
      </trkpt>
      <trkpt lat="52.252157" lon="10.480675">
        <ele>88.834981</ele>
        <time>2026-08-19T07:58:59.355Z</time>
      </trkpt>
      <trkpt lat="52.252238" lon="10.480785">
        <ele>88.848902</ele>
        <time>2026-08-19T07:59:01.349Z</time>
      </trkpt>
      <trkpt lat="52.252325" lon="10.481014">
        <ele>88.866496</ele>
        <time>2026-08-19T07:59:04.506Z</time>
      </trkpt>
      <trkpt lat="52.252384" lon="10.481343">
        <ele>88.852358</ele>
        <time>2026-08-19T07:59:08.799Z</time>
      </trkpt>
      <trkpt lat="52.252393" lon="10.481875">
        <ele>88.830411</ele>
        <time>2026-08-19T07:59:15.790Z</time>
      </trkpt>
      <trkpt lat="52.252406" lon="10.482745">
        <ele>88.794522</ele>
        <time>2026-08-19T07:59:27.255Z</time>
      </trkpt>
      <trkpt lat="52.252408" lon="10.482865">
        <ele>88.789572</ele>
        <time>2026-08-19T07:59:29.015Z</time>
      </trkpt>
      <trkpt lat="52.252410" lon="10.482989">
        <ele>88.784456</ele>
        <time>2026-08-19T07:59:30.711Z</time>
      </trkpt>
      <trkpt lat="52.252422" lon="10.483753">
        <ele>88.752939</ele>
        <time>2026-08-19T07:59:41.396Z</time>
      </trkpt>
      <trkpt lat="52.252406" lon="10.484320">
        <ele>88.849426</ele>
        <time>2026-08-19T07:59:50.012Z</time>
      </trkpt>
      <trkpt lat="52.252367" lon="10.484634">
        <ele>88.928193</ele>
        <time>2026-08-19T07:59:55.135Z</time>
      </trkpt>
      <trkpt lat="52.252278" lon="10.484961">
        <ele>89.016171</ele>
        <time>2026-08-19T08:00:00.509Z</time>
      </trkpt>
      <trkpt lat="52.252238" lon="10.485084">
        <ele>89.050412</ele>
        <time>2026-08-19T08:00:02.531Z</time>
      </trkpt>
      <trkpt lat="52.252200" lon="10.485195">
        <ele>89.081677</ele>
        <time>2026-08-19T08:00:04.451Z</time>
      </trkpt>
      <trkpt lat="52.252012" lon="10.485745">
        <ele>89.236541</ele>
        <time>2026-08-19T08:00:13.718Z</time>
      </trkpt>
      <trkpt lat="52.251965" lon="10.485962">
        <ele>89.293130</ele>
        <time>2026-08-19T08:00:17.154Z</time>
      </trkpt>
      <trkpt lat="52.251930" lon="10.486539">
        <ele>89.435678</ele>
        <time>2026-08-19T08:00:25.681Z</time>
      </trkpt>
      <trkpt lat="52.251930" lon="10.486705">
        <ele>89.465057</ele>
        <time>2026-08-19T08:00:27.967Z</time>
      </trkpt>
      <trkpt lat="52.251930" lon="10.486833">
        <ele>89.448098</ele>
        <time>2026-08-19T08:00:29.916Z</time>
      </trkpt>
      <trkpt lat="52.252030" lon="10.486840">
        <ele>89.426437</ele>
        <time>2026-08-19T08:00:32.009Z</time>
      </trkpt>
      <trkpt lat="52.252638" lon="10.486870">
        <ele>89.294795</ele>
        <time>2026-08-19T08:00:44.651Z</time>
      </trkpt>
      <trkpt lat="52.252688" lon="10.486873">
        <ele>89.283967</ele>
        <time>2026-08-19T08:00:45.784Z</time>
      </trkpt>
      <trkpt lat="52.252752" lon="10.486876">
        <ele>89.270110</ele>
        <time>2026-08-19T08:00:47.020Z</time>
      </trkpt>
      <trkpt lat="52.252792" lon="10.486878">
        <ele>89.261450</ele>
        <time>2026-08-19T08:00:47.878Z</time>
      </trkpt>
      <trkpt lat="52.252794" lon="10.486954">
        <ele>89.251371</ele>
        <time>2026-08-19T08:00:49.276Z</time>
      </trkpt>
      <trkpt lat="52.253020" lon="10.486968">
        <ele>89.202426</ele>
        <time>2026-08-19T08:00:55.766Z</time>
      </trkpt>
      <trkpt lat="52.253273" lon="10.486981">
        <ele>89.147645</ele>
        <time>2026-08-19T08:01:03.254Z</time>
      </trkpt>
      <trkpt lat="52.253542" lon="10.486974">
        <ele>89.089422</ele>
        <time>2026-08-19T08:01:10.982Z</time>
      </trkpt>
      <trkpt lat="52.253574" lon="10.487550">
        <ele>88.856323</ele>
        <time>2026-08-19T08:01:18.082Z</time>
      </trkpt>
      <trkpt lat="52.253542" lon="10.486974">
        <ele>88.600761</ele>
        <time>2026-08-19T08:01:25.107Z</time>
      </trkpt>
      <trkpt lat="52.253626" lon="10.486941">
        <ele>88.538400</ele>
        <time>2026-08-19T08:01:26.806Z</time>
      </trkpt>
      <trkpt lat="52.253692" lon="10.487043">
        <ele>88.472819</ele>
        <time>2026-08-19T08:01:28.895Z</time>
      </trkpt>
      <trkpt lat="52.254369" lon="10.486917">
        <ele>87.980994</ele>
        <time>2026-08-19T08:01:44.213Z</time>
      </trkpt>
      <trkpt lat="52.254492" lon="10.486907">
        <ele>87.892101</ele>
        <time>2026-08-19T08:01:46.942Z</time>
      </trkpt>
      <trkpt lat="52.254642" lon="10.487158">
        <ele>87.689597</ele>
        <time>2026-08-19T08:01:51.529Z</time>
      </trkpt>
      <trkpt lat="52.254942" lon="10.487862">
        <ele>86.905179</ele>
        <time>2026-08-19T08:02:02.623Z</time>
      </trkpt>
      <trkpt lat="52.255130" lon="10.489217">
        <ele>85.634646</ele>
        <time>2026-08-19T08:02:20.243Z</time>
      </trkpt>
      <trkpt lat="52.255157" lon="10.489501">
        <ele>85.371824</ele>
        <time>2026-08-19T08:02:23.771Z</time>
      </trkpt>
      <trkpt lat="52.255141" lon="10.489744">
        <ele>85.148327</ele>
        <time>2026-08-19T08:02:26.707Z</time>
      </trkpt>
      <trkpt lat="52.255222" lon="10.490399">
        <ele>84.368017</ele>
        <time>2026-08-19T08:02:33.791Z</time>
      </trkpt>
      <trkpt lat="52.255158" lon="10.490599">
        <ele>84.098977</ele>
        <time>2026-08-19T08:02:36.229Z</time>
      </trkpt>
      <trkpt lat="52.255287" lon="10.490840">
        <ele>83.717324</ele>
        <time>2026-08-19T08:02:39.719Z</time>
      </trkpt>
      <trkpt lat="52.255462" lon="10.491547">
        <ele>82.808187</ele>
        <time>2026-08-19T08:02:48.112Z</time>
      </trkpt>
      <trkpt lat="52.255536" lon="10.491876">
        <ele>82.390336</ele>
        <time>2026-08-19T08:02:51.925Z</time>
      </trkpt>
      <trkpt lat="52.255654" lon="10.492387">
        <ele>81.739254</ele>
        <time>2026-08-19T08:02:57.805Z</time>
      </trkpt>
      <trkpt lat="52.255781" lon="10.492848">
        <ele>81.136428</ele>
        <time>2026-08-19T08:03:03.142Z</time>
      </trkpt>
      <trkpt lat="52.255836" lon="10.493047">
        <ele>80.876041</ele>
        <time>2026-08-19T08:03:05.433Z</time>
      </trkpt>
      <trkpt lat="52.256254" lon="10.494613">
        <ele>78.838681</ele>
        <time>2026-08-19T08:03:23.733Z</time>
      </trkpt>
      <trkpt lat="52.256342" lon="10.494963">
        <ele>78.387453</ele>
        <time>2026-08-19T08:03:27.796Z</time>
      </trkpt>
      <trkpt lat="52.256628" lon="10.496018">
        <ele>77.788519</ele>
        <time>2026-08-19T08:03:40.858Z</time>
      </trkpt>
      <trkpt lat="52.256766" lon="10.496599">
        <ele>77.581930</ele>
        <time>2026-08-19T08:03:48.741Z</time>
      </trkpt>
      <trkpt lat="52.256891" lon="10.497282">
        <ele>77.345618</ele>
        <time>2026-08-19T08:03:58.096Z</time>
      </trkpt>
      <trkpt lat="52.256984" lon="10.497533">
        <ele>77.248358</ele>
        <time>2026-08-19T08:04:02.170Z</time>
      </trkpt>
      <trkpt lat="52.257227" lon="10.498031">
        <ele>77.258847</ele>
        <time>2026-08-19T08:04:11.604Z</time>
      </trkpt>
      <trkpt lat="52.257273" lon="10.498191">
        <ele>77.370243</ele>
        <time>2026-08-19T08:04:14.232Z</time>
      </trkpt>
      <trkpt lat="52.257468" lon="10.499203">
        <ele>78.038833</ele>
        <time>2026-08-19T08:04:29.855Z</time>
      </trkpt>
      <trkpt lat="52.257505" lon="10.499406">
        <ele>78.172309</ele>
        <time>2026-08-19T08:04:33.285Z</time>
      </trkpt>
      <trkpt lat="52.257571" lon="10.499762">
        <ele>78.406714</ele>
        <time>2026-08-19T08:04:39.646Z</time>
      </trkpt>
      <trkpt lat="52.257637" lon="10.500170">
        <ele>78.672652</ele>
        <time>2026-08-19T08:04:47.351Z</time>
      </trkpt>
      <trkpt lat="52.257619" lon="10.500444">
        <ele>78.846310</ele>
        <time>2026-08-19T08:04:52.658Z</time>
      </trkpt>
      <trkpt lat="52.257722" lon="10.500493">
        <ele>78.956754</ele>
        <time>2026-08-19T08:04:56.893Z</time>
      </trkpt>
      <trkpt lat="52.257754" lon="10.500619">
        <ele>79.038738</ele>
        <time>2026-08-19T08:05:00.110Z</time>
      </trkpt>
      <trkpt lat="52.257764" lon="10.500680">
        <ele>79.076486</ele>
        <time>2026-08-19T08:05:01.314Z</time>
      </trkpt>
      <trkpt lat="52.257809" lon="10.500943">
        <ele>79.239720</ele>
        <time>2026-08-19T08:05:06.456Z</time>
      </trkpt>
      <trkpt lat="52.257941" lon="10.502202">
        <ele>80.003246</ele>
        <time>2026-08-19T08:05:26.178Z</time>
      </trkpt>
      <trkpt lat="52.257953" lon="10.502307">
        <ele>80.067095</ele>
        <time>2026-08-19T08:05:27.839Z</time>
      </trkpt>
      <trkpt lat="52.257958" lon="10.502497">
        <ele>80.180772</ele>
        <time>2026-08-19T08:05:31.129Z</time>
      </trkpt>
      <trkpt lat="52.257978" lon="10.502711">
        <ele>80.310172</ele>
        <time>2026-08-19T08:05:34.770Z</time>
      </trkpt>
      <trkpt lat="52.257990" lon="10.502846">
        <ele>80.391715</ele>
        <time>2026-08-19T08:05:36.850Z</time>
      </trkpt>
      <trkpt lat="52.258059" lon="10.503589">
        <ele>80.792688</ele>
        <time>2026-08-19T08:05:47.737Z</time>
      </trkpt>
      <trkpt lat="52.258062" lon="10.503622">
        <ele>80.804555</ele>
        <time>2026-08-19T08:05:48.225Z</time>
      </trkpt>
      <trkpt lat="52.257965" lon="10.503627">
        <ele>80.860954</ele>
        <time>2026-08-19T08:05:50.345Z</time>
      </trkpt>
      <trkpt lat="52.257928" lon="10.503647">
        <ele>80.883603</ele>
        <time>2026-08-19T08:05:51.082Z</time>
      </trkpt>
      <trkpt lat="52.257903" lon="10.503660">
        <ele>80.898850</ele>
        <time>2026-08-19T08:05:51.715Z</time>
      </trkpt>
      <trkpt lat="52.257730" lon="10.503751">
        <ele>81.004471</ele>
        <time>2026-08-19T08:05:55.555Z</time>
      </trkpt>
      <trkpt lat="52.257661" lon="10.503804">
        <ele>81.048781</ele>
        <time>2026-08-19T08:05:57.087Z</time>
      </trkpt>
      <trkpt lat="52.257465" lon="10.503942">
        <ele>81.172814</ele>
        <time>2026-08-19T08:06:01.825Z</time>
      </trkpt>
      <trkpt lat="52.257488" lon="10.504049">
        <ele>81.213156</ele>
        <time>2026-08-19T08:06:03.655Z</time>
      </trkpt>
      <trkpt lat="52.257515" lon="10.504170">
        <ele>81.258970</ele>
        <time>2026-08-19T08:06:05.611Z</time>
      </trkpt>
      <trkpt lat="52.257542" lon="10.504288">
        <ele>81.303782</ele>
        <time>2026-08-19T08:06:07.862Z</time>
      </trkpt>
      <trkpt lat="52.257573" lon="10.504268">
        <ele>81.323152</ele>
        <time>2026-08-19T08:06:08.629Z</time>
      </trkpt>
      <trkpt lat="52.257584" lon="10.504262">
        <ele>81.329891</ele>
        <time>2026-08-19T08:06:08.943Z</time>
      </trkpt>
      <trkpt lat="52.257592" lon="10.504299">
        <ele>81.343850</ele>
        <time>2026-08-19T08:06:09.819Z</time>
      </trkpt>
      <trkpt lat="52.257581" lon="10.504305">
        <ele>81.350590</ele>
        <time>2026-08-19T08:06:10.612Z</time>
      </trkpt>
      <trkpt lat="52.257562" lon="10.504316">
        <ele>81.362304</ele>
        <time>2026-08-19T08:06:12.011Z</time>
      </trkpt>
      <trkpt lat="52.257600" lon="10.504476">
        <ele>81.423355</ele>
        <time>2026-08-19T08:06:19.290Z</time>
      </trkpt>
      <trkpt lat="52.257562" lon="10.504316">
        <ele>81.484405</ele>
        <time>2026-08-19T08:06:26.571Z</time>
      </trkpt>
      <trkpt lat="52.257581" lon="10.504305">
        <ele>81.496120</ele>
        <time>2026-08-19T08:06:27.969Z</time>
      </trkpt>
      <trkpt lat="52.257592" lon="10.504299">
        <ele>81.502859</ele>
        <time>2026-08-19T08:06:28.762Z</time>
      </trkpt>
      <trkpt lat="52.257597" lon="10.504322">
        <ele>81.511542</ele>
        <time>2026-08-19T08:06:29.315Z</time>
      </trkpt>
      <trkpt lat="52.257673" lon="10.504703">
        <ele>81.654088</ele>
        <time>2026-08-19T08:06:36.303Z</time>
      </trkpt>
      <trkpt lat="52.257689" lon="10.504802">
        <ele>81.690512</ele>
        <time>2026-08-19T08:06:37.664Z</time>
      </trkpt>
      <trkpt lat="52.257696" lon="10.504833">
        <ele>81.702266</ele>
        <time>2026-08-19T08:06:38.099Z</time>
      </trkpt>
      <trkpt lat="52.257820" lon="10.505395">
        <ele>81.477855</ele>
        <time>2026-08-19T08:06:46.672Z</time>
      </trkpt>
      <trkpt lat="52.257842" lon="10.505492">
        <ele>81.405805</ele>
        <time>2026-08-19T08:06:48.004Z</time>
      </trkpt>
      <trkpt lat="52.257855" lon="10.505550">
        <ele>81.362785</ele>
        <time>2026-08-19T08:06:48.853Z</time>
      </trkpt>
      <trkpt lat="52.257861" lon="10.505579">
        <ele>81.341464</ele>
        <time>2026-08-19T08:06:49.299Z</time>
      </trkpt>
      <trkpt lat="52.257881" lon="10.505669">
        <ele>81.274776</ele>
        <time>2026-08-19T08:06:50.661Z</time>
      </trkpt>
      <trkpt lat="52.258039" lon="10.506372">
        <ele>80.753173</ele>
        <time>2026-08-19T08:06:59.718Z</time>
      </trkpt>
      <trkpt lat="52.258065" lon="10.506490">
        <ele>80.665823</ele>
        <time>2026-08-19T08:07:01.048Z</time>
      </trkpt>
      <trkpt lat="52.258074" lon="10.506526">
        <ele>80.638738</ele>
        <time>2026-08-19T08:07:01.485Z</time>
      </trkpt>
      <trkpt lat="52.258089" lon="10.506590">
        <ele>80.591006</ele>
        <time>2026-08-19T08:07:02.262Z</time>
      </trkpt>
      <trkpt lat="52.258265" lon="10.507325">
        <ele>80.041303</ele>
        <time>2026-08-19T08:07:10.564Z</time>
      </trkpt>
      <trkpt lat="52.258269" lon="10.507343">
        <ele>80.027965</ele>
        <time>2026-08-19T08:07:10.751Z</time>
      </trkpt>
      <trkpt lat="52.258285" lon="10.507407">
        <ele>79.979815</ele>
        <time>2026-08-19T08:07:11.448Z</time>
      </trkpt>
      <trkpt lat="52.258296" lon="10.507454">
        <ele>79.944768</ele>
        <time>2026-08-19T08:07:11.967Z</time>
      </trkpt>
      <trkpt lat="52.258442" lon="10.508063">
        <ele>79.531197</ele>
        <time>2026-08-19T08:07:18.787Z</time>
      </trkpt>
      <trkpt lat="52.258476" lon="10.508207">
        <ele>79.443211</ele>
        <time>2026-08-19T08:07:20.402Z</time>
      </trkpt>
      <trkpt lat="52.258547" lon="10.508210">
        <ele>79.377064</ele>
        <time>2026-08-19T08:07:21.627Z</time>
      </trkpt>
      <trkpt lat="52.259255" lon="10.508247">
        <ele>78.717341</ele>
        <time>2026-08-19T08:07:35.243Z</time>
      </trkpt>
      <trkpt lat="52.259382" lon="10.508257">
        <ele>78.598924</ele>
        <time>2026-08-19T08:07:37.995Z</time>
      </trkpt>
      <trkpt lat="52.259607" lon="10.508277">
        <ele>78.389064</ele>
        <time>2026-08-19T08:07:42.885Z</time>
      </trkpt>
      <trkpt lat="52.259715" lon="10.508287">
        <ele>78.288318</ele>
        <time>2026-08-19T08:07:45.427Z</time>
      </trkpt>
      <trkpt lat="52.259999" lon="10.508307">
        <ele>78.044193</ele>
        <time>2026-08-19T08:07:51.700Z</time>
      </trkpt>
      <trkpt lat="52.260310" lon="10.508322">
        <ele>78.029465</ele>
        <time>2026-08-19T08:07:58.681Z</time>
      </trkpt>
      <trkpt lat="52.260377" lon="10.508289">
        <ele>78.026152</ele>
        <time>2026-08-19T08:08:00.301Z</time>
      </trkpt>
      <trkpt lat="52.260435" lon="10.508104">
        <ele>78.020130</ele>
        <time>2026-08-19T08:08:03.362Z</time>
      </trkpt>
      <trkpt lat="52.260714" lon="10.508312">
        <ele>78.005612</ele>
        <time>2026-08-19T08:08:13.007Z</time>
      </trkpt>
      <trkpt lat="52.260856" lon="10.508315">
        <ele>77.998890</ele>
        <time>2026-08-19T08:08:17.282Z</time>
      </trkpt>
      <trkpt lat="52.260945" lon="10.508303">
        <ele>77.994662</ele>
        <time>2026-08-19T08:08:19.871Z</time>
      </trkpt>
      <trkpt lat="52.260982" lon="10.508297">
        <ele>77.992902</ele>
        <time>2026-08-19T08:08:20.897Z</time>
      </trkpt>
      <trkpt lat="52.261053" lon="10.508286">
        <ele>77.989526</ele>
        <time>2026-08-19T08:08:22.780Z</time>
      </trkpt>
      <trkpt lat="52.261289" lon="10.508251">
        <ele>77.978309</ele>
        <time>2026-08-19T08:08:27.599Z</time>
      </trkpt>
      <trkpt lat="52.261402" lon="10.508243">
        <ele>77.972955</ele>
        <time>2026-08-19T08:08:29.862Z</time>
      </trkpt>
      <trkpt lat="52.261394" lon="10.508441">
        <ele>77.967205</ele>
        <time>2026-08-19T08:08:32.321Z</time>
      </trkpt>
      <trkpt lat="52.261451" lon="10.508446">
        <ele>77.964503</ele>
        <time>2026-08-19T08:08:36.252Z</time>
      </trkpt>
      <trkpt lat="52.261394" lon="10.508441">
        <ele>77.961801</ele>
        <time>2026-08-19T08:08:40.183Z</time>
      </trkpt>
      <trkpt lat="52.261379" lon="10.508691">
        <ele>77.932569</ele>
        <time>2026-08-19T08:08:43.456Z</time>
      </trkpt>
      <trkpt lat="52.261351" lon="10.509103">
        <ele>77.873731</ele>
        <time>2026-08-19T08:08:49.191Z</time>
      </trkpt>
      <trkpt lat="52.261338" lon="10.509269">
        <ele>77.849977</ele>
        <time>2026-08-19T08:08:51.527Z</time>
      </trkpt>
      <trkpt lat="52.261330" lon="10.509365">
        <ele>77.836225</ele>
        <time>2026-08-19T08:08:52.940Z</time>
      </trkpt>
      <trkpt lat="52.261325" lon="10.509428">
        <ele>77.827208</ele>
        <time>2026-08-19T08:08:53.800Z</time>
      </trkpt>
      <trkpt lat="52.261313" lon="10.509538">
        <ele>77.811349</ele>
        <time>2026-08-19T08:08:55.407Z</time>
      </trkpt>
      <trkpt lat="52.261250" lon="10.509948">
        <ele>77.751348</ele>
        <time>2026-08-19T08:09:01.050Z</time>
      </trkpt>
      <trkpt lat="52.261249" lon="10.510059">
        <ele>77.735591</ele>
        <time>2026-08-19T08:09:02.548Z</time>
      </trkpt>
      <trkpt lat="52.261314" lon="10.510192">
        <ele>77.711434</ele>
        <time>2026-08-19T08:09:04.689Z</time>
      </trkpt>
      <trkpt lat="52.261587" lon="10.510478">
        <ele>77.636228</ele>
        <time>2026-08-19T08:09:11.451Z</time>
      </trkpt>
      <trkpt lat="52.262244" lon="10.511159">
        <ele>77.385877</ele>
        <time>2026-08-19T08:09:27.869Z</time>
      </trkpt>
      <trkpt lat="52.262198" lon="10.511241">
        <ele>77.357438</ele>
        <time>2026-08-19T08:09:29.267Z</time>
      </trkpt>
      <trkpt lat="52.262184" lon="10.511358">
        <ele>77.326958</ele>
        <time>2026-08-19T08:09:30.781Z</time>
      </trkpt>
      <trkpt lat="52.262201" lon="10.511495">
        <ele>77.291218</ele>
        <time>2026-08-19T08:09:32.541Z</time>
      </trkpt>
      <trkpt lat="52.262206" lon="10.511520">
        <ele>77.284494</ele>
        <time>2026-08-19T08:09:32.880Z</time>
      </trkpt>
      <trkpt lat="52.262218" lon="10.511565">
        <ele>77.271944</ele>
        <time>2026-08-19T08:09:33.500Z</time>
      </trkpt>
      <trkpt lat="52.262369" lon="10.511489">
        <ele>77.205942</ele>
        <time>2026-08-19T08:09:36.673Z</time>
      </trkpt>
      <trkpt lat="52.262381" lon="10.511483">
        <ele>77.200699</ele>
        <time>2026-08-19T08:09:36.931Z</time>
      </trkpt>
      <trkpt lat="52.262470" lon="10.511417">
        <ele>77.159871</ele>
        <time>2026-08-19T08:09:38.890Z</time>
      </trkpt>
      <trkpt lat="52.262492" lon="10.511390">
        <ele>77.148377</ele>
        <time>2026-08-19T08:09:39.451Z</time>
      </trkpt>
      <trkpt lat="52.262642" lon="10.511260">
        <ele>77.077448</ele>
        <time>2026-08-19T08:09:42.876Z</time>
      </trkpt>
      <trkpt lat="52.262781" lon="10.511125">
        <ele>77.009899</ele>
        <time>2026-08-19T08:09:46.155Z</time>
      </trkpt>
      <trkpt lat="52.263119" lon="10.510598">
        <ele>76.814733</ele>
        <time>2026-08-19T08:09:55.844Z</time>
      </trkpt>
      <trkpt lat="52.263243" lon="10.510476">
        <ele>76.797143</ele>
        <time>2026-08-19T08:09:58.997Z</time>
      </trkpt>
      <trkpt lat="52.263566" lon="10.510269">
        <ele>76.818254</ele>
        <time>2026-08-19T08:10:06.848Z</time>
      </trkpt>
      <trkpt lat="52.264054" lon="10.510141">
        <ele>76.848327</ele>
        <time>2026-08-19T08:10:17.907Z</time>
      </trkpt>
      <trkpt lat="52.264409" lon="10.510174">
        <ele>76.869962</ele>
        <time>2026-08-19T08:10:25.873Z</time>
      </trkpt>
      <trkpt lat="52.264846" lon="10.510366">
        <ele>76.897495</ele>
        <time>2026-08-19T08:10:36.274Z</time>
      </trkpt>
      <trkpt lat="52.264985" lon="10.510458">
        <ele>76.941580</ele>
        <time>2026-08-19T08:10:39.692Z</time>
      </trkpt>
      <trkpt lat="52.265931" lon="10.511510">
        <ele>77.454626</ele>
        <time>2026-08-19T08:11:07.022Z</time>
      </trkpt>
      <trkpt lat="52.266518" lon="10.512178">
        <ele>77.613794</ele>
        <time>2026-08-19T08:11:25.565Z</time>
      </trkpt>
      <trkpt lat="52.266770" lon="10.512462">
        <ele>77.423989</ele>
        <time>2026-08-19T08:11:32.346Z</time>
      </trkpt>
      <trkpt lat="52.266792" lon="10.512488">
        <ele>77.407155</ele>
        <time>2026-08-19T08:11:32.931Z</time>
      </trkpt>
      <trkpt lat="52.266960" lon="10.512677">
        <ele>77.280690</ele>
        <time>2026-08-19T08:11:37.400Z</time>
      </trkpt>
      <trkpt lat="52.267029" lon="10.512752">
        <ele>77.229307</ele>
        <time>2026-08-19T08:11:39.157Z</time>
      </trkpt>
      <trkpt lat="52.267182" lon="10.512922">
        <ele>77.114590</ele>
        <time>2026-08-19T08:11:42.948Z</time>
      </trkpt>
      <trkpt lat="52.267266" lon="10.513015">
        <ele>77.051679</ele>
        <time>2026-08-19T08:11:44.962Z</time>
      </trkpt>
      <trkpt lat="52.267323" lon="10.513078">
        <ele>77.009012</ele>
        <time>2026-08-19T08:11:46.305Z</time>
      </trkpt>
      <trkpt lat="52.267372" lon="10.513133">
        <ele>76.972153</ele>
        <time>2026-08-19T08:11:47.455Z</time>
      </trkpt>
      <trkpt lat="52.267479" lon="10.513251">
        <ele>76.892115</ele>
        <time>2026-08-19T08:11:49.868Z</time>
      </trkpt>
      <trkpt lat="52.267543" lon="10.513322">
        <ele>76.844152</ele>
        <time>2026-08-19T08:11:51.305Z</time>
      </trkpt>
      <trkpt lat="52.267474" lon="10.513484">
        <ele>76.769261</ele>
        <time>2026-08-19T08:11:53.520Z</time>
      </trkpt>
      <trkpt lat="52.267465" lon="10.513508">
        <ele>76.758580</ele>
        <time>2026-08-19T08:11:53.841Z</time>
      </trkpt>
      <trkpt lat="52.267311" lon="10.513882">
        <ele>76.584250</ele>
        <time>2026-08-19T08:11:58.828Z</time>
      </trkpt>
      <trkpt lat="52.267047" lon="10.514351">
        <ele>76.177073</ele>
        <time>2026-08-19T08:12:05.640Z</time>
      </trkpt>
      <trkpt lat="52.267013" lon="10.514390">
        <ele>76.133700</ele>
        <time>2026-08-19T08:12:06.369Z</time>
      </trkpt>
      <trkpt lat="52.266953" lon="10.514414">
        <ele>76.069202</ele>
        <time>2026-08-19T08:12:07.448Z</time>
      </trkpt>
      <trkpt lat="52.266907" lon="10.514513">
        <ele>75.989775</ele>
        <time>2026-08-19T08:12:08.801Z</time>
      </trkpt>
      <trkpt lat="52.266821" lon="10.514698">
        <ele>75.841325</ele>
        <time>2026-08-19T08:12:11.377Z</time>
      </trkpt>
      <trkpt lat="52.266756" lon="10.514839">
        <ele>75.728526</ele>
        <time>2026-08-19T08:12:13.320Z</time>
      </trkpt>
      <trkpt lat="52.266797" lon="10.514889">
        <ele>75.675109</ele>
        <time>2026-08-19T08:12:14.253Z</time>
      </trkpt>
      <trkpt lat="52.266801" lon="10.514999">
        <ele>75.604696</ele>
        <time>2026-08-19T08:12:15.473Z</time>
      </trkpt>
      <trkpt lat="52.266790" lon="10.515051">
        <ele>75.569540</ele>
        <time>2026-08-19T08:12:16.087Z</time>
      </trkpt>
      <trkpt lat="52.266565" lon="10.516112">
        <ele>74.852021</ele>
        <time>2026-08-19T08:12:30.250Z</time>
      </trkpt>
      <trkpt lat="52.266537" lon="10.516289">
        <ele>74.735201</ele>
        <time>2026-08-19T08:12:33.056Z</time>
      </trkpt>
      <trkpt lat="52.266518" lon="10.516667">
        <ele>74.822151</ele>
        <time>2026-08-19T08:12:38.666Z</time>
      </trkpt>
      <trkpt lat="52.266520" lon="10.516739">
        <ele>74.844571</ele>
        <time>2026-08-19T08:12:39.798Z</time>
      </trkpt>
      <trkpt lat="52.266549" lon="10.516674">
        <ele>74.869592</ele>
        <time>2026-08-19T08:12:43.189Z</time>
      </trkpt>
      <trkpt lat="52.266520" lon="10.516739">
        <ele>74.894614</ele>
        <time>2026-08-19T08:12:44.204Z</time>
      </trkpt>
      <trkpt lat="52.266489" lon="10.516749">
        <ele>74.910675</ele>
        <time>2026-08-19T08:12:44.942Z</time>
      </trkpt>
      <trkpt lat="52.266051" lon="10.516901">
        <ele>75.138267</ele>
        <time>2026-08-19T08:12:54.817Z</time>
      </trkpt>
      <trkpt lat="52.265980" lon="10.516922">
        <ele>75.174942</ele>
        <time>2026-08-19T08:12:56.760Z</time>
      </trkpt>
      <trkpt lat="52.265839" lon="10.516991">
        <ele>75.249754</ele>
        <time>2026-08-19T08:13:00.845Z</time>
      </trkpt>
      <trkpt lat="52.265900" lon="10.517032">
        <ele>75.283280</ele>
        <time>2026-08-19T08:13:02.532Z</time>
      </trkpt>
      <trkpt lat="52.265938" lon="10.517132">
        <ele>75.319895</ele>
        <time>2026-08-19T08:13:04.685Z</time>
      </trkpt>
      <trkpt lat="52.265942" lon="10.517210">
        <ele>75.344244</ele>
        <time>2026-08-19T08:13:05.957Z</time>
      </trkpt>
      <trkpt lat="52.265953" lon="10.517367">
        <ele>75.393400</ele>
        <time>2026-08-19T08:13:08.763Z</time>
      </trkpt>
      <trkpt lat="52.265950" lon="10.517657">
        <ele>75.483622</ele>
        <time>2026-08-19T08:13:13.714Z</time>
      </trkpt>
      <trkpt lat="52.265895" lon="10.517885">
        <ele>75.559856</ele>
        <time>2026-08-19T08:13:17.604Z</time>
      </trkpt>
      <trkpt lat="52.265780" lon="10.518224">
        <ele>75.680751</ele>
        <time>2026-08-19T08:13:22.989Z</time>
      </trkpt>
      <trkpt lat="52.265716" lon="10.518570">
        <ele>75.793897</ele>
        <time>2026-08-19T08:13:27.854Z</time>
      </trkpt>
      <trkpt lat="52.265671" lon="10.519673">
        <ele>76.139931</ele>
        <time>2026-08-19T08:13:43.673Z</time>
      </trkpt>
      <trkpt lat="52.265641" lon="10.519952">
        <ele>76.228603</ele>
        <time>2026-08-19T08:13:48.463Z</time>
      </trkpt>
      <trkpt lat="52.265623" lon="10.520062">
        <ele>76.264245</ele>
        <time>2026-08-19T08:13:50.468Z</time>
      </trkpt>
      <trkpt lat="52.265598" lon="10.520179">
        <ele>76.303037</ele>
        <time>2026-08-19T08:13:52.557Z</time>
      </trkpt>
      <trkpt lat="52.265560" lon="10.520345">
        <ele>76.358516</ele>
        <time>2026-08-19T08:13:55.471Z</time>
      </trkpt>
      <trkpt lat="52.265522" lon="10.520387">
        <ele>76.381981</ele>
        <time>2026-08-19T08:13:56.608Z</time>
      </trkpt>
      <trkpt lat="52.265469" lon="10.520389">
        <ele>76.409096</ele>
        <time>2026-08-19T08:13:57.969Z</time>
      </trkpt>
      <trkpt lat="52.265437" lon="10.520384">
        <ele>76.425538</ele>
        <time>2026-08-19T08:13:58.714Z</time>
      </trkpt>
      <trkpt lat="52.265348" lon="10.520375">
        <ele>76.471147</ele>
        <time>2026-08-19T08:14:00.750Z</time>
      </trkpt>
      <trkpt lat="52.265171" lon="10.520349">
        <ele>76.550194</ele>
        <time>2026-08-19T08:14:04.699Z</time>
      </trkpt>
      <trkpt lat="52.265139" lon="10.520305">
        <ele>76.552846</ele>
        <time>2026-08-19T08:14:05.608Z</time>
      </trkpt>
      <trkpt lat="52.264740" lon="10.520248">
        <ele>76.578236</ele>
        <time>2026-08-19T08:14:15.012Z</time>
      </trkpt>
      <trkpt lat="52.264736" lon="10.520502">
        <ele>76.588094</ele>
        <time>2026-08-19T08:14:18.702Z</time>
      </trkpt>
      <trkpt lat="52.264678" lon="10.520531">
        <ele>76.591939</ele>
        <time>2026-08-19T08:14:20.147Z</time>
      </trkpt>
      <trkpt lat="52.264547" lon="10.520593">
        <ele>76.600585</ele>
        <time>2026-08-19T08:14:23.217Z</time>
      </trkpt>
      <trkpt lat="52.264435" lon="10.520597">
        <ele>76.607686</ele>
        <time>2026-08-19T08:14:25.746Z</time>
      </trkpt>
      <trkpt lat="52.264313" lon="10.520600">
        <ele>76.615421</ele>
        <time>2026-08-19T08:14:29.358Z</time>
      </trkpt>
      <trkpt lat="52.264370" lon="10.521527">
        <ele>76.651568</ele>
        <time>2026-08-19T08:14:46.531Z</time>
      </trkpt>
      <trkpt lat="52.264376" lon="10.521628">
        <ele>76.655505</ele>
        <time>2026-08-19T08:14:48.182Z</time>
      </trkpt>
      <trkpt lat="52.264140" lon="10.521733">
        <ele>76.562949</ele>
        <time>2026-08-19T08:14:53.333Z</time>
      </trkpt>
      <trkpt lat="52.264069" lon="10.521725">
        <ele>76.509907</ele>
        <time>2026-08-19T08:14:54.734Z</time>
      </trkpt>
      <trkpt lat="52.263982" lon="10.521774">
        <ele>76.441323</ele>
        <time>2026-08-19T08:14:56.644Z</time>
      </trkpt>
      <trkpt lat="52.263886" lon="10.521735">
        <ele>76.367596</ele>
        <time>2026-08-19T08:14:58.653Z</time>
      </trkpt>
      <trkpt lat="52.263663" lon="10.521676">
        <ele>76.199230</ele>
        <time>2026-08-19T08:15:03.309Z</time>
      </trkpt>
      <trkpt lat="52.263683" lon="10.521786">
        <ele>76.146888</ele>
        <time>2026-08-19T08:15:04.660Z</time>
      </trkpt>
      <trkpt lat="52.263687" lon="10.521991">
        <ele>76.053331</ele>
        <time>2026-08-19T08:15:07.309Z</time>
      </trkpt>
      <trkpt lat="52.263697" lon="10.522187">
        <ele>75.963617</ele>
        <time>2026-08-19T08:15:09.896Z</time>
      </trkpt>
      <trkpt lat="52.263726" lon="10.522254">
        <ele>75.926185</ele>
        <time>2026-08-19T08:15:10.876Z</time>
      </trkpt>
      <trkpt lat="52.263848" lon="10.522538">
        <ele>75.767916</ele>
        <time>2026-08-19T08:15:15.470Z</time>
      </trkpt>
      <trkpt lat="52.263968" lon="10.522892">
        <ele>75.583329</ele>
        <time>2026-08-19T08:15:20.634Z</time>
      </trkpt>
      <trkpt lat="52.263925" lon="10.522938">
        <ele>75.545024</ele>
        <time>2026-08-19T08:15:22.021Z</time>
      </trkpt>
      <trkpt lat="52.263981" lon="10.523378">
        <ele>75.340029</ele>
        <time>2026-08-19T08:15:28.805Z</time>
      </trkpt>
      <trkpt lat="52.263977" lon="10.523516">
        <ele>75.316262</ele>
        <time>2026-08-19T08:15:30.418Z</time>
      </trkpt>
      <trkpt lat="52.263833" lon="10.524282">
        <ele>75.269497</ele>
        <time>2026-08-19T08:15:40.686Z</time>
      </trkpt>
      <trkpt lat="52.263819" lon="10.524354">
        <ele>75.265088</ele>
        <time>2026-08-19T08:15:43.908Z</time>
      </trkpt>
      <trkpt lat="52.264271" lon="10.524583">
        <ele>75.219963</ele>
        <time>2026-08-19T08:15:55.802Z</time>
      </trkpt>
      <trkpt lat="52.264307" lon="10.524601">
        <ele>75.216373</ele>
        <time>2026-08-19T08:15:56.872Z</time>
      </trkpt>
      <trkpt lat="52.264320" lon="10.524608">
        <ele>75.215068</ele>
        <time>2026-08-19T08:15:57.280Z</time>
      </trkpt>
      <trkpt lat="52.264894" lon="10.524909">
        <ele>75.157585</ele>
        <time>2026-08-19T08:16:10.907Z</time>
      </trkpt>
      <trkpt lat="52.264957" lon="10.524952">
        <ele>75.151074</ele>
        <time>2026-08-19T08:16:12.301Z</time>
      </trkpt>
      <trkpt lat="52.265003" lon="10.525009">
        <ele>75.117962</ele>
        <time>2026-08-19T08:16:13.478Z</time>
      </trkpt>
      <trkpt lat="52.265078" lon="10.525201">
        <ele>75.030407</ele>
        <time>2026-08-19T08:16:16.556Z</time>
      </trkpt>
      <trkpt lat="52.265151" lon="10.525493">
        <ele>74.909161</ele>
        <time>2026-08-19T08:16:21.093Z</time>
      </trkpt>
      <trkpt lat="52.265177" lon="10.525594">
        <ele>74.867043</ele>
        <time>2026-08-19T08:16:22.565Z</time>
      </trkpt>
      <trkpt lat="52.265265" lon="10.525966">
        <ele>74.713740</ele>
        <time>2026-08-19T08:16:27.717Z</time>
      </trkpt>
      <trkpt lat="52.265288" lon="10.526057">
        <ele>74.675895</ele>
        <time>2026-08-19T08:16:28.828Z</time>
      </trkpt>
      <trkpt lat="52.265302" lon="10.526115">
        <ele>74.651929</ele>
        <time>2026-08-19T08:16:29.545Z</time>
      </trkpt>
      <trkpt lat="52.265330" lon="10.526286">
        <ele>74.583886</ele>
        <time>2026-08-19T08:16:31.556Z</time>
      </trkpt>
      <trkpt lat="52.265336" lon="10.526356">
        <ele>74.556716</ele>
        <time>2026-08-19T08:16:32.344Z</time>
      </trkpt>
      <trkpt lat="52.265380" lon="10.526808">
        <ele>74.380788</ele>
        <time>2026-08-19T08:16:37.463Z</time>
      </trkpt>
      <trkpt lat="52.265394" lon="10.526951">
        <ele>74.325121</ele>
        <time>2026-08-19T08:16:39.192Z</time>
      </trkpt>
      <trkpt lat="52.265461" lon="10.527546">
        <ele>74.092571</ele>
        <time>2026-08-19T08:16:46.228Z</time>
      </trkpt>
      <trkpt lat="52.265482" lon="10.527740">
        <ele>74.022876</ele>
        <time>2026-08-19T08:16:48.785Z</time>
      </trkpt>
      <trkpt lat="52.265413" lon="10.527913">
        <ele>74.064022</ele>
        <time>2026-08-19T08:16:52.452Z</time>
      </trkpt>
      <trkpt lat="52.265426" lon="10.528016">
        <ele>74.084978</ele>
        <time>2026-08-19T08:16:54.252Z</time>
      </trkpt>
      <trkpt lat="52.265510" lon="10.528799">
        <ele>74.243378</ele>
        <time>2026-08-19T08:17:05.631Z</time>
      </trkpt>
      <trkpt lat="52.265558" lon="10.529246">
        <ele>74.333808</ele>
        <time>2026-08-19T08:17:11.433Z</time>
      </trkpt>
      <trkpt lat="52.265584" lon="10.529492">
        <ele>74.383551</ele>
        <time>2026-08-19T08:17:15.187Z</time>
      </trkpt>
      <trkpt lat="52.265597" lon="10.529613">
        <ele>74.408031</ele>
        <time>2026-08-19T08:17:17.268Z</time>
      </trkpt>
      <trkpt lat="52.265608" lon="10.529714">
        <ele>74.428472</ele>
        <time>2026-08-19T08:17:19.076Z</time>
      </trkpt>
      <trkpt lat="52.265633" lon="10.529949">
        <ele>74.476000</ele>
        <time>2026-08-19T08:17:23.560Z</time>
      </trkpt>
      <trkpt lat="52.265610" lon="10.530059">
        <ele>74.499163</ele>
        <time>2026-08-19T08:17:25.655Z</time>
      </trkpt>
      <trkpt lat="52.265684" lon="10.530751">
        <ele>74.664381</ele>
        <time>2026-08-19T08:17:38.278Z</time>
      </trkpt>
      <trkpt lat="52.265696" lon="10.530864">
        <ele>74.704870</ele>
        <time>2026-08-19T08:17:40.310Z</time>
      </trkpt>
      <trkpt lat="52.265776" lon="10.530847">
        <ele>74.751406</ele>
        <time>2026-08-19T08:17:42.386Z</time>
      </trkpt>
      <trkpt lat="52.265765" lon="10.530967">
        <ele>74.794243</ele>
        <time>2026-08-19T08:17:44.346Z</time>
      </trkpt>
      <trkpt lat="52.265716" lon="10.531065">
        <ele>74.838918</ele>
        <time>2026-08-19T08:17:46.224Z</time>
      </trkpt>
      <trkpt lat="52.265652" lon="10.531142">
        <ele>74.884764</ele>
        <time>2026-08-19T08:17:48.240Z</time>
      </trkpt>
      <trkpt lat="52.265602" lon="10.531259">
        <ele>74.935142</ele>
        <time>2026-08-19T08:17:50.278Z</time>
      </trkpt>
      <trkpt lat="52.265573" lon="10.531412">
        <ele>74.991687</ele>
        <time>2026-08-19T08:17:52.701Z</time>
      </trkpt>
      <trkpt lat="52.265572" lon="10.531450">
        <ele>75.005115</ele>
        <time>2026-08-19T08:17:53.197Z</time>
      </trkpt>
      <trkpt lat="52.265448" lon="10.531434">
        <ele>75.076867</ele>
        <time>2026-08-19T08:17:56.028Z</time>
      </trkpt>
      <trkpt lat="52.265387" lon="10.531339">
        <ele>75.125477</ele>
        <time>2026-08-19T08:17:57.957Z</time>
      </trkpt>
      <trkpt lat="52.265263" lon="10.531275">
        <ele>75.200490</ele>
        <time>2026-08-19T08:18:01.027Z</time>
      </trkpt>
      <trkpt lat="52.265089" lon="10.531282">
        <ele>75.300892</ele>
        <time>2026-08-19T08:18:05.389Z</time>
      </trkpt>
      <trkpt lat="52.264908" lon="10.531302">
        <ele>75.405539</ele>
        <time>2026-08-19T08:18:10.183Z</time>
      </trkpt>
      <trkpt lat="52.264124" lon="10.531526">
        <ele>75.927065</ele>
        <time>2026-08-19T08:18:27.801Z</time>
      </trkpt>
      <trkpt lat="52.263619" lon="10.531673">
        <ele>76.306648</ele>
        <time>2026-08-19T08:18:39.446Z</time>
      </trkpt>
      <trkpt lat="52.263607" lon="10.531696">
        <ele>76.320336</ele>
        <time>2026-08-19T08:18:39.916Z</time>
      </trkpt>
      <trkpt lat="52.263586" lon="10.531688">
        <ele>76.336293</ele>
        <time>2026-08-19T08:18:40.481Z</time>
      </trkpt>
      <trkpt lat="52.263517" lon="10.531702">
        <ele>76.387745</ele>
        <time>2026-08-19T08:18:42.231Z</time>
      </trkpt>
      <trkpt lat="52.263406" lon="10.531725">
        <ele>76.470543</ele>
        <time>2026-08-19T08:18:45.100Z</time>
      </trkpt>
      <trkpt lat="52.263379" lon="10.531614">
        <ele>76.524640</ele>
        <time>2026-08-19T08:18:46.934Z</time>
      </trkpt>
      <trkpt lat="52.263360" lon="10.531620">
        <ele>76.538960</ele>
        <time>2026-08-19T08:18:47.434Z</time>
      </trkpt>
      <trkpt lat="52.263320" lon="10.531631">
        <ele>76.568977</ele>
        <time>2026-08-19T08:18:48.541Z</time>
      </trkpt>
      <trkpt lat="52.262531" lon="10.531881">
        <ele>77.355429</ele>
        <time>2026-08-19T08:19:11.623Z</time>
      </trkpt>
      <trkpt lat="52.261853" lon="10.532083">
        <ele>78.383439</ele>
        <time>2026-08-19T08:19:31.712Z</time>
      </trkpt>
      <trkpt lat="52.261718" lon="10.532124">
        <ele>78.588260</ele>
        <time>2026-08-19T08:19:35.457Z</time>
      </trkpt>
      <trkpt lat="52.261447" lon="10.532223">
        <ele>79.002476</ele>
        <time>2026-08-19T08:19:43.045Z</time>
      </trkpt>
      <trkpt lat="52.261354" lon="10.532321">
        <ele>79.167549</ele>
        <time>2026-08-19T08:19:46.025Z</time>
      </trkpt>
      <trkpt lat="52.261277" lon="10.532463">
        <ele>79.340752</ele>
        <time>2026-08-19T08:19:49.179Z</time>
      </trkpt>
      <trkpt lat="52.261182" lon="10.532516">
        <ele>79.490491</ele>
        <time>2026-08-19T08:19:51.965Z</time>
      </trkpt>
      <trkpt lat="52.261023" lon="10.532980">
        <ele>79.725914</ele>
        <time>2026-08-19T08:20:03.630Z</time>
      </trkpt>
      <trkpt lat="52.260858" lon="10.533447">
        <ele>79.831183</ele>
        <time>2026-08-19T08:20:15.300Z</time>
      </trkpt>
      <trkpt lat="52.260862" lon="10.533608">
        <ele>79.862640</ele>
        <time>2026-08-19T08:20:17.698Z</time>
      </trkpt>
      <trkpt lat="52.260565" lon="10.534426">
        <ele>80.048316</ele>
        <time>2026-08-19T08:20:29.836Z</time>
      </trkpt>
      <trkpt lat="52.260628" lon="10.534489">
        <ele>80.071876</ele>
        <time>2026-08-19T08:20:31.404Z</time>
      </trkpt>
      <trkpt lat="52.260565" lon="10.534426">
        <ele>80.095435</ele>
        <time>2026-08-19T08:20:33.025Z</time>
      </trkpt>
      <trkpt lat="52.260494" lon="10.534619">
        <ele>80.139396</ele>
        <time>2026-08-19T08:20:36.037Z</time>
      </trkpt>
      <trkpt lat="52.260424" lon="10.534578">
        <ele>80.163114</ele>
        <time>2026-08-19T08:20:37.770Z</time>
      </trkpt>
      <trkpt lat="52.259953" lon="10.534273">
        <ele>79.975803</ele>
        <time>2026-08-19T08:20:48.801Z</time>
      </trkpt>
      <trkpt lat="52.259790" lon="10.534168">
        <ele>79.822304</ele>
        <time>2026-08-19T08:20:52.426Z</time>
      </trkpt>
      <trkpt lat="52.259615" lon="10.534042">
        <ele>79.654764</ele>
        <time>2026-08-19T08:20:56.212Z</time>
      </trkpt>
      <trkpt lat="52.259458" lon="10.533919">
        <ele>79.502224</ele>
        <time>2026-08-19T08:20:59.534Z</time>
      </trkpt>
      <trkpt lat="52.259412" lon="10.533881">
        <ele>79.457066</ele>
        <time>2026-08-19T08:21:00.483Z</time>
      </trkpt>
      <trkpt lat="52.259124" lon="10.533584">
        <ele>79.158698</ele>
        <time>2026-08-19T08:21:06.856Z</time>
      </trkpt>
      <trkpt lat="52.258986" lon="10.533425">
        <ele>79.010759</ele>
        <time>2026-08-19T08:21:10.094Z</time>
      </trkpt>
      <trkpt lat="52.258719" lon="10.532952">
        <ele>78.665726</ele>
        <time>2026-08-19T08:21:17.947Z</time>
      </trkpt>
      <trkpt lat="52.258714" lon="10.532943">
        <ele>78.659208</ele>
        <time>2026-08-19T08:21:18.092Z</time>
      </trkpt>
      <trkpt lat="52.258593" lon="10.532729">
        <ele>78.372262</ele>
        <time>2026-08-19T08:21:21.432Z</time>
      </trkpt>
      <trkpt lat="52.258551" lon="10.532656">
        <ele>78.272596</ele>
        <time>2026-08-19T08:21:22.539Z</time>
      </trkpt>
      <trkpt lat="52.258483" lon="10.532550">
        <ele>78.119842</ele>
        <time>2026-08-19T08:21:24.257Z</time>
      </trkpt>
      <trkpt lat="52.258373" lon="10.532394">
        <ele>77.883102</ele>
        <time>2026-08-19T08:21:26.874Z</time>
      </trkpt>
      <trkpt lat="52.258200" lon="10.532153">
        <ele>77.513594</ele>
        <time>2026-08-19T08:21:30.793Z</time>
      </trkpt>
      <trkpt lat="52.258076" lon="10.531980">
        <ele>77.248576</ele>
        <time>2026-08-19T08:21:33.536Z</time>
      </trkpt>
      <trkpt lat="52.258060" lon="10.531962">
        <ele>77.217003</ele>
        <time>2026-08-19T08:21:33.867Z</time>
      </trkpt>
      <trkpt lat="52.258078" lon="10.531921">
        <ele>77.166809</ele>
        <time>2026-08-19T08:21:34.410Z</time>
      </trkpt>
      <trkpt lat="52.258136" lon="10.531789">
        <ele>77.005162</ele>
        <time>2026-08-19T08:21:36.096Z</time>
      </trkpt>
      <trkpt lat="52.258281" lon="10.531409">
        <ele>76.559691</ele>
        <time>2026-08-19T08:21:41.000Z</time>
      </trkpt>
      <trkpt lat="52.258385" lon="10.530979">
        <ele>76.099736</ele>
        <time>2026-08-19T08:21:46.312Z</time>
      </trkpt>
      <trkpt lat="52.258466" lon="10.530391">
        <ele>75.640898</ele>
        <time>2026-08-19T08:21:53.151Z</time>
      </trkpt>
      <trkpt lat="52.258496" lon="10.530055">
        <ele>75.507630</ele>
        <time>2026-08-19T08:21:57.054Z</time>
      </trkpt>
      <trkpt lat="52.258522" lon="10.529499">
        <ele>75.288777</ele>
        <time>2026-08-19T08:22:03.708Z</time>
      </trkpt>
      <trkpt lat="52.258509" lon="10.529048">
        <ele>75.111574</ele>
        <time>2026-08-19T08:22:09.422Z</time>
      </trkpt>
      <trkpt lat="52.258458" lon="10.528211">
        <ele>74.781446</ele>
        <time>2026-08-19T08:22:20.540Z</time>
      </trkpt>
      <trkpt lat="52.258457" lon="10.528162">
        <ele>74.762204</ele>
        <time>2026-08-19T08:22:21.160Z</time>
      </trkpt>
      <trkpt lat="52.258499" lon="10.528023">
        <ele>74.701365</ele>
        <time>2026-08-19T08:22:23.101Z</time>
      </trkpt>
      <trkpt lat="52.258548" lon="10.527990">
        <ele>74.667381</ele>
        <time>2026-08-19T08:22:24.157Z</time>
      </trkpt>
      <trkpt lat="52.258587" lon="10.527969">
        <ele>74.641051</ele>
        <time>2026-08-19T08:22:24.942Z</time>
      </trkpt>
      <trkpt lat="52.258847" lon="10.527913">
        <ele>74.642797</ele>
        <time>2026-08-19T08:22:30.026Z</time>
      </trkpt>
      <trkpt lat="52.258850" lon="10.527944">
        <ele>74.650145</ele>
        <time>2026-08-19T08:22:30.544Z</time>
      </trkpt>
      <trkpt lat="52.258925" lon="10.527919">
        <ele>74.679420</ele>
        <time>2026-08-19T08:22:35.861Z</time>
      </trkpt>
      <trkpt lat="52.258850" lon="10.527944">
        <ele>74.708695</ele>
        <time>2026-08-19T08:22:41.179Z</time>
      </trkpt>
      <trkpt lat="52.258557" lon="10.528033">
        <ele>74.822675</ele>
        <time>2026-08-19T08:23:01.871Z</time>
      </trkpt>
      <trkpt lat="52.258548" lon="10.527990">
        <ele>74.833313</ele>
        <time>2026-08-19T08:23:03.781Z</time>
      </trkpt>
      <trkpt lat="52.258499" lon="10.528023">
        <ele>74.853584</ele>
        <time>2026-08-19T08:23:05.258Z</time>
      </trkpt>
      <trkpt lat="52.258499" lon="10.527945">
        <ele>74.871843</ele>
        <time>2026-08-19T08:23:06.653Z</time>
      </trkpt>
      <trkpt lat="52.258498" lon="10.527893">
        <ele>74.884023</ele>
        <time>2026-08-19T08:23:07.539Z</time>
      </trkpt>
      <trkpt lat="52.258499" lon="10.527782">
        <ele>74.910011</ele>
        <time>2026-08-19T08:23:09.338Z</time>
      </trkpt>
      <trkpt lat="52.258493" lon="10.527661">
        <ele>74.938430</ele>
        <time>2026-08-19T08:23:11.477Z</time>
      </trkpt>
      <trkpt lat="52.258485" lon="10.527491">
        <ele>74.978344</ele>
        <time>2026-08-19T08:23:14.181Z</time>
      </trkpt>
      <trkpt lat="52.258472" lon="10.527180">
        <ele>75.051320</ele>
        <time>2026-08-19T08:23:18.952Z</time>
      </trkpt>
      <trkpt lat="52.258465" lon="10.527042">
        <ele>75.083736</ele>
        <time>2026-08-19T08:23:20.746Z</time>
      </trkpt>
      <trkpt lat="52.258380" lon="10.527032">
        <ele>75.116329</ele>
        <time>2026-08-19T08:23:22.673Z</time>
      </trkpt>
      <trkpt lat="52.258353" lon="10.526972">
        <ele>75.133763</ele>
        <time>2026-08-19T08:23:23.564Z</time>
      </trkpt>
      <trkpt lat="52.258330" lon="10.526564">
        <ele>75.229680</ele>
        <time>2026-08-19T08:23:29.150Z</time>
      </trkpt>
      <trkpt lat="52.258285" lon="10.525650">
        <ele>74.978977</ele>
        <time>2026-08-19T08:23:42.462Z</time>
      </trkpt>
      <trkpt lat="52.258290" lon="10.525446">
        <ele>74.901196</ele>
        <time>2026-08-19T08:23:45.455Z</time>
      </trkpt>
      <trkpt lat="52.258311" lon="10.525368">
        <ele>74.868732</ele>
        <time>2026-08-19T08:23:46.739Z</time>
      </trkpt>
      <trkpt lat="52.258397" lon="10.525210">
        <ele>74.788181</ele>
        <time>2026-08-19T08:23:49.667Z</time>
      </trkpt>
      <trkpt lat="52.258572" lon="10.524998">
        <ele>74.652582</ele>
        <time>2026-08-19T08:23:54.042Z</time>
      </trkpt>
      <trkpt lat="52.258789" lon="10.524221">
        <ele>74.327210</ele>
        <time>2026-08-19T08:24:03.378Z</time>
      </trkpt>
      <trkpt lat="52.258879" lon="10.523781">
        <ele>74.150471</ele>
        <time>2026-08-19T08:24:08.731Z</time>
      </trkpt>
      <trkpt lat="52.258849" lon="10.523420">
        <ele>73.991367</ele>
        <time>2026-08-19T08:24:13.120Z</time>
      </trkpt>
      <trkpt lat="52.258868" lon="10.523230">
        <ele>73.907074</ele>
        <time>2026-08-19T08:24:15.477Z</time>
      </trkpt>
      <trkpt lat="52.258821" lon="10.523189">
        <ele>73.868962</ele>
        <time>2026-08-19T08:24:16.494Z</time>
      </trkpt>
      <trkpt lat="52.258613" lon="10.522970">
        <ele>73.691954</ele>
        <time>2026-08-19T08:24:21.233Z</time>
      </trkpt>
      <trkpt lat="52.258579" lon="10.522931">
        <ele>73.662237</ele>
        <time>2026-08-19T08:24:22.019Z</time>
      </trkpt>
      <trkpt lat="52.258557" lon="10.522925">
        <ele>73.646282</ele>
        <time>2026-08-19T08:24:22.435Z</time>
      </trkpt>
      <trkpt lat="52.258539" lon="10.522964">
        <ele>73.624896</ele>
        <time>2026-08-19T08:24:23.027Z</time>
      </trkpt>
      <trkpt lat="52.258513" lon="10.522951">
        <ele>73.605446</ele>
        <time>2026-08-19T08:24:23.706Z</time>
      </trkpt>
      <trkpt lat="52.257917" lon="10.522464">
        <ele>73.128764</ele>
        <time>2026-08-19T08:24:41.469Z</time>
      </trkpt>
      <trkpt lat="52.257872" lon="10.522417">
        <ele>73.090558</ele>
        <time>2026-08-19T08:24:42.944Z</time>
      </trkpt>
      <trkpt lat="52.257861" lon="10.522330">
        <ele>73.051661</ele>
        <time>2026-08-19T08:24:44.405Z</time>
      </trkpt>
      <trkpt lat="52.257575" lon="10.522086">
        <ele>72.880509</ele>
        <time>2026-08-19T08:24:51.461Z</time>
      </trkpt>
      <trkpt lat="52.257388" lon="10.521934">
        <ele>72.952404</ele>
        <time>2026-08-19T08:24:56.482Z</time>
      </trkpt>
      <trkpt lat="52.257252" lon="10.521827">
        <ele>73.004364</ele>
        <time>2026-08-19T08:25:00.120Z</time>
      </trkpt>
      <trkpt lat="52.257189" lon="10.521509">
        <ele>73.074789</ele>
        <time>2026-08-19T08:25:04.964Z</time>
      </trkpt>
      <trkpt lat="52.257198" lon="10.521477">
        <ele>73.082209</ele>
        <time>2026-08-19T08:25:05.442Z</time>
      </trkpt>
      <trkpt lat="52.257223" lon="10.521191">
        <ele>73.143081</ele>
        <time>2026-08-19T08:25:09.633Z</time>
      </trkpt>
      <trkpt lat="52.257196" lon="10.520745">
        <ele>73.237512</ele>
        <time>2026-08-19T08:25:16.498Z</time>
      </trkpt>
      <trkpt lat="52.257192" lon="10.520694">
        <ele>73.248346</ele>
        <time>2026-08-19T08:25:17.263Z</time>
      </trkpt>
      <trkpt lat="52.257161" lon="10.520226">
        <ele>73.347530</ele>
        <time>2026-08-19T08:25:24.443Z</time>
      </trkpt>
      <trkpt lat="52.257101" lon="10.520030">
        <ele>73.393704</ele>
        <time>2026-08-19T08:25:27.689Z</time>
      </trkpt>
      <trkpt lat="52.257038" lon="10.520056">
        <ele>73.416071</ele>
        <time>2026-08-19T08:25:29.239Z</time>
      </trkpt>
      <trkpt lat="52.256926" lon="10.520196">
        <ele>73.464614</ele>
        <time>2026-08-19T08:25:32.640Z</time>
      </trkpt>
      <trkpt lat="52.256778" lon="10.520288">
        <ele>73.485986</ele>
        <time>2026-08-19T08:25:36.491Z</time>
      </trkpt>
      <trkpt lat="52.255884" lon="10.520638">
        <ele>73.532644</ele>
        <time>2026-08-19T08:25:57.219Z</time>
      </trkpt>
      <trkpt lat="52.255543" lon="10.520723">
        <ele>73.550150</ele>
        <time>2026-08-19T08:26:04.669Z</time>
      </trkpt>
      <trkpt lat="52.255267" lon="10.520739">
        <ele>73.564167</ele>
        <time>2026-08-19T08:26:10.655Z</time>
      </trkpt>
      <trkpt lat="52.255077" lon="10.520691">
        <ele>73.560257</ele>
        <time>2026-08-19T08:26:14.819Z</time>
      </trkpt>
      <trkpt lat="52.253783" lon="10.520066">
        <ele>73.236013</ele>
        <time>2026-08-19T08:26:43.906Z</time>
      </trkpt>
      <trkpt lat="52.253289" lon="10.520124">
        <ele>73.118219</ele>
        <time>2026-08-19T08:26:54.041Z</time>
      </trkpt>
      <trkpt lat="52.252901" lon="10.520229">
        <ele>73.028862</ele>
        <time>2026-08-19T08:27:02.662Z</time>
      </trkpt>
      <trkpt lat="52.252532" lon="10.520372">
        <ele>72.942697</ele>
        <time>2026-08-19T08:27:10.883Z</time>
      </trkpt>
      <trkpt lat="52.252285" lon="10.520288">
        <ele>72.885374</ele>
        <time>2026-08-19T08:27:16.235Z</time>
      </trkpt>
      <trkpt lat="52.252085" lon="10.520170">
        <ele>72.837060</ele>
        <time>2026-08-19T08:27:20.741Z</time>
      </trkpt>
      <trkpt lat="52.251947" lon="10.520131">
        <ele>72.805240</ele>
        <time>2026-08-19T08:27:23.693Z</time>
      </trkpt>
      <trkpt lat="52.250967" lon="10.520093">
        <ele>72.745416</ele>
        <time>2026-08-19T08:27:44.780Z</time>
      </trkpt>
      <trkpt lat="52.250648" lon="10.520076">
        <ele>72.752626</ele>
        <time>2026-08-19T08:27:51.373Z</time>
      </trkpt>
      <trkpt lat="52.250453" lon="10.520076">
        <ele>72.757032</ele>
        <time>2026-08-19T08:27:55.554Z</time>
      </trkpt>
      <trkpt lat="52.249924" lon="10.520076">
        <ele>72.768983</ele>
        <time>2026-08-19T08:28:07.950Z</time>
      </trkpt>
      <trkpt lat="52.249552" lon="10.520070">
        <ele>72.934327</ele>
        <time>2026-08-19T08:28:17.395Z</time>
      </trkpt>
      <trkpt lat="52.249076" lon="10.520053">
        <ele>73.223200</ele>
        <time>2026-08-19T08:28:29.852Z</time>
      </trkpt>
      <trkpt lat="52.248976" lon="10.520038">
        <ele>73.284129</ele>
        <time>2026-08-19T08:28:32.470Z</time>
      </trkpt>
      <trkpt lat="52.248952" lon="10.519996">
        <ele>73.305470</ele>
        <time>2026-08-19T08:28:33.375Z</time>
      </trkpt>
      <trkpt lat="52.248978" lon="10.519922">
        <ele>73.337162</ele>
        <time>2026-08-19T08:28:35.102Z</time>
      </trkpt>
      <trkpt lat="52.248962" lon="10.519668">
        <ele>73.432011</ele>
        <time>2026-08-19T08:28:40.220Z</time>
      </trkpt>
      <trkpt lat="52.248924" lon="10.519668">
        <ele>73.455067</ele>
        <time>2026-08-19T08:28:41.203Z</time>
      </trkpt>
      <trkpt lat="52.248879" lon="10.519667">
        <ele>73.482373</ele>
        <time>2026-08-19T08:28:42.478Z</time>
      </trkpt>
      <trkpt lat="52.247862" lon="10.519946">
        <ele>73.811621</ele>
        <time>2026-08-19T08:29:09.402Z</time>
      </trkpt>
      <trkpt lat="52.247452" lon="10.520311">
        <ele>73.752767</ele>
        <time>2026-08-19T08:29:19.952Z</time>
      </trkpt>
      <trkpt lat="52.246834" lon="10.520856">
        <ele>73.664245</ele>
        <time>2026-08-19T08:29:35.901Z</time>
      </trkpt>
      <trkpt lat="52.246622" lon="10.520935">
        <ele>73.636838</ele>
        <time>2026-08-19T08:29:41.411Z</time>
      </trkpt>
      <trkpt lat="52.246202" lon="10.520996">
        <ele>73.999514</ele>
        <time>2026-08-19T08:29:52.832Z</time>
      </trkpt>
      <trkpt lat="52.246009" lon="10.521029">
        <ele>74.169831</ele>
        <time>2026-08-19T08:29:58.052Z</time>
      </trkpt>
      <trkpt lat="52.245929" lon="10.521074">
        <ele>74.244092</ele>
        <time>2026-08-19T08:30:00.346Z</time>
      </trkpt>
      <trkpt lat="52.245911" lon="10.521117">
        <ele>74.272083</ele>
        <time>2026-08-19T08:30:01.172Z</time>
      </trkpt>
      <trkpt lat="52.245842" lon="10.521058">
        <ele>74.340440</ele>
        <time>2026-08-19T08:30:03.215Z</time>
      </trkpt>
      <trkpt lat="52.245779" lon="10.521053">
        <ele>74.395799</ele>
        <time>2026-08-19T08:30:04.857Z</time>
      </trkpt>
      <trkpt lat="52.245660" lon="10.521193">
        <ele>74.524516</ele>
        <time>2026-08-19T08:30:08.750Z</time>
      </trkpt>
      <trkpt lat="52.245392" lon="10.521641">
        <ele>74.861095</ele>
        <time>2026-08-19T08:30:19.133Z</time>
      </trkpt>
      <trkpt lat="52.245263" lon="10.521752">
        <ele>74.989066</ele>
        <time>2026-08-19T08:30:23.291Z</time>
      </trkpt>
      <trkpt lat="52.245169" lon="10.521792">
        <ele>75.074322</ele>
        <time>2026-08-19T08:30:26.163Z</time>
      </trkpt>
      <trkpt lat="52.244851" lon="10.521864">
        <ele>75.126892</ele>
        <time>2026-08-19T08:30:35.188Z</time>
      </trkpt>
      <trkpt lat="52.244491" lon="10.521814">
        <ele>74.930595</ele>
        <time>2026-08-19T08:30:43.977Z</time>
      </trkpt>
      <trkpt lat="52.244413" lon="10.521762">
        <ele>74.884823</ele>
        <time>2026-08-19T08:30:45.889Z</time>
      </trkpt>
      <trkpt lat="52.244081" lon="10.522148">
        <ele>74.663406</ele>
        <time>2026-08-19T08:30:53.955Z</time>
      </trkpt>
      <trkpt lat="52.243943" lon="10.522253">
        <ele>74.580693</ele>
        <time>2026-08-19T08:30:56.770Z</time>
      </trkpt>
      <trkpt lat="52.243672" lon="10.522407">
        <ele>74.424798</ele>
        <time>2026-08-19T08:31:02.059Z</time>
      </trkpt>
      <trkpt lat="52.243527" lon="10.522474">
        <ele>74.342926</ele>
        <time>2026-08-19T08:31:04.784Z</time>
      </trkpt>
      <trkpt lat="52.243383" lon="10.522498">
        <ele>74.264283</ele>
        <time>2026-08-19T08:31:07.383Z</time>
      </trkpt>
      <trkpt lat="52.243066" lon="10.522727">
        <ele>73.942206</ele>
        <time>2026-08-19T08:31:13.483Z</time>
      </trkpt>
      <trkpt lat="52.242392" lon="10.523376">
        <ele>73.164717</ele>
        <time>2026-08-19T08:31:27.676Z</time>
      </trkpt>
      <trkpt lat="52.242330" lon="10.523437">
        <ele>73.092792</ele>
        <time>2026-08-19T08:31:29.070Z</time>
      </trkpt>
      <trkpt lat="52.241823" lon="10.523752">
        <ele>72.553768</ele>
        <time>2026-08-19T08:31:40.600Z</time>
      </trkpt>
      <trkpt lat="52.240995" lon="10.524125">
        <ele>72.618243</ele>
        <time>2026-08-19T08:32:02.224Z</time>
      </trkpt>
      <trkpt lat="52.240751" lon="10.524204">
        <ele>72.673700</ele>
        <time>2026-08-19T08:32:08.232Z</time>
      </trkpt>
      <trkpt lat="52.240484" lon="10.524182">
        <ele>72.733302</ele>
        <time>2026-08-19T08:32:18.390Z</time>
      </trkpt>
      <trkpt lat="52.240186" lon="10.524096">
        <ele>72.800769</ele>
        <time>2026-08-19T08:32:25.924Z</time>
      </trkpt>
      <trkpt lat="52.239604" lon="10.523743">
        <ele>72.721610</ele>
        <time>2026-08-19T08:32:40.643Z</time>
      </trkpt>
      <trkpt lat="52.239440" lon="10.523692">
        <ele>72.666973</ele>
        <time>2026-08-19T08:32:44.414Z</time>
      </trkpt>
      <trkpt lat="52.238988" lon="10.523563">
        <ele>72.516803</ele>
        <time>2026-08-19T08:32:54.777Z</time>
      </trkpt>
      <trkpt lat="52.238300" lon="10.523499">
        <ele>72.291274</ele>
        <time>2026-08-19T08:33:11.011Z</time>
      </trkpt>
      <trkpt lat="52.237758" lon="10.522633">
        <ele>72.388907</ele>
        <time>2026-08-19T08:33:39.072Z</time>
      </trkpt>
      <trkpt lat="52.237663" lon="10.522377">
        <ele>72.423525</ele>
        <time>2026-08-19T08:33:46.120Z</time>
      </trkpt>
      <trkpt lat="52.237513" lon="10.521804">
        <ele>72.495594</ele>
        <time>2026-08-19T08:34:00.931Z</time>
      </trkpt>
      <trkpt lat="52.237414" lon="10.521470">
        <ele>72.538509</ele>
        <time>2026-08-19T08:34:09.799Z</time>
      </trkpt>
      <trkpt lat="52.237242" lon="10.521147">
        <ele>72.588012</ele>
        <time>2026-08-19T08:34:19.969Z</time>
      </trkpt>
      <trkpt lat="52.237133" lon="10.521085">
        <ele>72.588731</ele>
        <time>2026-08-19T08:34:24.384Z</time>
      </trkpt>
      <trkpt lat="52.237010" lon="10.521172">
        <ele>72.545233</ele>
        <time>2026-08-19T08:34:27.478Z</time>
      </trkpt>
      <trkpt lat="52.236872" lon="10.521178">
        <ele>72.500435</ele>
        <time>2026-08-19T08:34:30.614Z</time>
      </trkpt>
      <trkpt lat="52.236505" lon="10.520932">
        <ele>72.371697</ele>
        <time>2026-08-19T08:34:39.357Z</time>
      </trkpt>
      <trkpt lat="52.236396" lon="10.520826">
        <ele>72.330528</ele>
        <time>2026-08-19T08:34:42.032Z</time>
      </trkpt>
      <trkpt lat="52.236308" lon="10.520795">
        <ele>72.301315</ele>
        <time>2026-08-19T08:34:43.886Z</time>
      </trkpt>
      <trkpt lat="52.236132" lon="10.520798">
        <ele>72.244198</ele>
        <time>2026-08-19T08:34:47.472Z</time>
      </trkpt>
      <trkpt lat="52.235825" lon="10.520753">
        <ele>72.144174</ele>
        <time>2026-08-19T08:34:58.066Z</time>
      </trkpt>
      <trkpt lat="52.235275" lon="10.520496">
        <ele>71.921136</ele>
        <time>2026-08-19T08:35:17.758Z</time>
      </trkpt>
      <trkpt lat="52.235208" lon="10.520404">
        <ele>71.874979</ele>
        <time>2026-08-19T08:35:20.818Z</time>
      </trkpt>
      <trkpt lat="52.235025" lon="10.519912">
        <ele>71.689105</ele>
        <time>2026-08-19T08:35:33.157Z</time>
      </trkpt>
      <trkpt lat="52.234953" lon="10.519554">
        <ele>71.567431</ele>
        <time>2026-08-19T08:35:41.149Z</time>
      </trkpt>
      <trkpt lat="52.235004" lon="10.518809">
        <ele>71.325368</ele>
        <time>2026-08-19T08:35:57.318Z</time>
      </trkpt>
      <trkpt lat="52.234990" lon="10.518504">
        <ele>71.226606</ele>
        <time>2026-08-19T08:36:04.068Z</time>
      </trkpt>
      <trkpt lat="52.234608" lon="10.518529">
        <ele>71.041156</ele>
        <time>2026-08-19T08:36:12.211Z</time>
      </trkpt>
      <trkpt lat="52.234554" lon="10.518517">
        <ele>71.022717</ele>
        <time>2026-08-19T08:36:13.398Z</time>
      </trkpt>
      <trkpt lat="52.234444" lon="10.518476">
        <ele>70.984541</ele>
        <time>2026-08-19T08:36:15.801Z</time>
      </trkpt>
      <trkpt lat="52.234188" lon="10.518299">
        <ele>70.890478</ele>
        <time>2026-08-19T08:36:21.705Z</time>
      </trkpt>
      <trkpt lat="52.233840" lon="10.518270">
        <ele>70.772579</ele>
        <time>2026-08-19T08:36:28.912Z</time>
      </trkpt>
      <trkpt lat="52.233455" lon="10.518142">
        <ele>70.639642</ele>
        <time>2026-08-19T08:36:37.245Z</time>
      </trkpt>
      <trkpt lat="52.233172" lon="10.517792">
        <ele>70.519522</ele>
        <time>2026-08-19T08:36:44.815Z</time>
      </trkpt>
      <trkpt lat="52.233052" lon="10.517684">
        <ele>70.473160</ele>
        <time>2026-08-19T08:36:47.666Z</time>
      </trkpt>
      <trkpt lat="52.232717" lon="10.517496">
        <ele>70.427743</ele>
        <time>2026-08-19T08:36:54.914Z</time>
      </trkpt>
      <trkpt lat="52.232457" lon="10.517557">
        <ele>70.400033</ele>
        <time>2026-08-19T08:37:00.279Z</time>
      </trkpt>
      <trkpt lat="52.232345" lon="10.517648">
        <ele>70.386836</ele>
        <time>2026-08-19T08:37:02.862Z</time>
      </trkpt>
      <trkpt lat="52.232207" lon="10.517853">
        <ele>70.367154</ele>
        <time>2026-08-19T08:37:06.762Z</time>
      </trkpt>
      <trkpt lat="52.231931" lon="10.518031">
        <ele>70.335849</ele>
        <time>2026-08-19T08:37:13.084Z</time>
      </trkpt>
      <trkpt lat="52.231739" lon="10.518104">
        <ele>70.315052</ele>
        <time>2026-08-19T08:37:17.398Z</time>
      </trkpt>
      <trkpt lat="52.231501" lon="10.518082">
        <ele>70.289905</ele>
        <time>2026-08-19T08:37:22.727Z</time>
      </trkpt>
      <trkpt lat="52.230660" lon="10.518511">
        <ele>71.088359</ele>
        <time>2026-08-19T08:37:45.148Z</time>
      </trkpt>
      <trkpt lat="52.230424" lon="10.518752">
        <ele>71.409102</ele>
        <time>2026-08-19T08:37:53.572Z</time>
      </trkpt>
      <trkpt lat="52.230316" lon="10.518762">
        <ele>71.533746</ele>
        <time>2026-08-19T08:37:56.956Z</time>
      </trkpt>
      <trkpt lat="52.230057" lon="10.518706">
        <ele>71.834787</ele>
        <time>2026-08-19T08:38:04.780Z</time>
      </trkpt>
      <trkpt lat="52.229878" lon="10.518648">
        <ele>72.045064</ele>
        <time>2026-08-19T08:38:09.800Z</time>
      </trkpt>
      <trkpt lat="52.229685" lon="10.518536">
        <ele>72.281080</ele>
        <time>2026-08-19T08:38:15.209Z</time>
      </trkpt>
      <trkpt lat="52.229658" lon="10.518558">
        <ele>72.315850</ele>
        <time>2026-08-19T08:38:16.066Z</time>
      </trkpt>
      <trkpt lat="52.229452" lon="10.518866">
        <ele>72.317017</ele>
        <time>2026-08-19T08:38:23.440Z</time>
      </trkpt>
      <trkpt lat="52.229408" lon="10.518951">
        <ele>72.309736</ele>
        <time>2026-08-19T08:38:25.243Z</time>
      </trkpt>
      <trkpt lat="52.229379" lon="10.518935">
        <ele>72.306466</ele>
        <time>2026-08-19T08:38:25.958Z</time>
      </trkpt>
      <trkpt lat="52.229172" lon="10.518194">
        <ele>72.253182</ele>
        <time>2026-08-19T08:38:45.073Z</time>
      </trkpt>
      <trkpt lat="52.229046" lon="10.517566">
        <ele>72.209947</ele>
        <time>2026-08-19T08:38:59.382Z</time>
      </trkpt>
      <trkpt lat="52.228672" lon="10.516784">
        <ele>72.120243</ele>
        <time>2026-08-19T08:39:19.459Z</time>
      </trkpt>
      <trkpt lat="52.228367" lon="10.516297">
        <ele>71.914771</ele>
        <time>2026-08-19T08:39:34.125Z</time>
      </trkpt>
      <trkpt lat="52.227653" lon="10.515577">
        <ele>71.510578</ele>
        <time>2026-08-19T08:40:03.758Z</time>
      </trkpt>
      <trkpt lat="52.227151" lon="10.515314">
        <ele>71.308468</ele>
        <time>2026-08-19T08:40:23.235Z</time>
      </trkpt>
      <trkpt lat="52.226855" lon="10.515226">
        <ele>71.420989</ele>
        <time>2026-08-19T08:40:34.596Z</time>
      </trkpt>
      <trkpt lat="52.226516" lon="10.515181">
        <ele>71.548189</ele>
        <time>2026-08-19T08:40:47.628Z</time>
      </trkpt>
      <trkpt lat="52.226043" lon="10.515180">
        <ele>71.725085</ele>
        <time>2026-08-19T08:41:05.752Z</time>
      </trkpt>
      <trkpt lat="52.225654" lon="10.515179">
        <ele>71.870567</ele>
        <time>2026-08-19T08:41:20.733Z</time>
      </trkpt>
      <trkpt lat="52.225134" lon="10.515129">
        <ele>72.309924</ele>
        <time>2026-08-19T08:41:41.711Z</time>
      </trkpt>
      <trkpt lat="52.224703" lon="10.514978">
        <ele>72.851968</ele>
        <time>2026-08-19T08:42:00.105Z</time>
      </trkpt>
      <trkpt lat="52.224668" lon="10.515206">
        <ele>73.029016</ele>
        <time>2026-08-19T08:42:04.434Z</time>
      </trkpt>
      <trkpt lat="52.224622" lon="10.515763">
        <ele>73.452366</ele>
        <time>2026-08-19T08:42:14.969Z</time>
      </trkpt>
      <trkpt lat="52.224662" lon="10.516020">
        <ele>73.652099</ele>
        <time>2026-08-19T08:42:19.982Z</time>
      </trkpt>
      <trkpt lat="52.224610" lon="10.516227">
        <ele>73.820621</ele>
        <time>2026-08-19T08:42:24.233Z</time>
      </trkpt>
      <trkpt lat="52.224555" lon="10.516627">
        <ele>74.129414</ele>
        <time>2026-08-19T08:42:32.044Z</time>
      </trkpt>
      <trkpt lat="52.224582" lon="10.517285">
        <ele>74.294383</ele>
        <time>2026-08-19T08:42:44.406Z</time>
      </trkpt>
      <trkpt lat="52.224568" lon="10.517629">
        <ele>74.365118</ele>
        <time>2026-08-19T08:42:50.433Z</time>
      </trkpt>
      <trkpt lat="52.224529" lon="10.517994">
        <ele>74.441138</ele>
        <time>2026-08-19T08:42:56.440Z</time>
      </trkpt>
      <trkpt lat="52.224398" lon="10.518518">
        <ele>74.557258</ele>
        <time>2026-08-19T08:43:05.073Z</time>
      </trkpt>
      <trkpt lat="52.224258" lon="10.518853">
        <ele>74.640463</ele>
        <time>2026-08-19T08:43:10.959Z</time>
      </trkpt>
      <trkpt lat="52.224054" lon="10.519169">
        <ele>74.734657</ele>
        <time>2026-08-19T08:43:17.425Z</time>
      </trkpt>
      <trkpt lat="52.224007" lon="10.519328">
        <ele>74.770879</ele>
        <time>2026-08-19T08:43:19.862Z</time>
      </trkpt>
      <trkpt lat="52.223812" lon="10.519382">
        <ele>74.725438</ele>
        <time>2026-08-19T08:43:23.880Z</time>
      </trkpt>
      <trkpt lat="52.223746" lon="10.519388">
        <ele>74.709245</ele>
        <time>2026-08-19T08:43:25.209Z</time>
      </trkpt>
      <trkpt lat="52.223707" lon="10.519392">
        <ele>74.699672</ele>
        <time>2026-08-19T08:43:25.982Z</time>
      </trkpt>
      <trkpt lat="52.223317" lon="10.519436">
        <ele>74.603904</ele>
        <time>2026-08-19T08:43:33.874Z</time>
      </trkpt>
      <trkpt lat="52.222656" lon="10.519508">
        <ele>74.441614</ele>
        <time>2026-08-19T08:43:47.854Z</time>
      </trkpt>
      <trkpt lat="52.222188" lon="10.519564">
        <ele>74.337133</ele>
        <time>2026-08-19T08:43:58.525Z</time>
      </trkpt>
      <trkpt lat="52.222185" lon="10.519466">
        <ele>74.351312</ele>
        <time>2026-08-19T08:44:00.352Z</time>
      </trkpt>
      <trkpt lat="52.222437" lon="10.518212">
        <ele>74.542013</ele>
        <time>2026-08-19T08:44:25.744Z</time>
      </trkpt>
      <trkpt lat="52.222505" lon="10.517960">
        <ele>74.581803</ele>
        <time>2026-08-19T08:44:30.909Z</time>
      </trkpt>
      <trkpt lat="52.222672" lon="10.517778">
        <ele>74.629166</ele>
        <time>2026-08-19T08:44:37.005Z</time>
      </trkpt>
      <trkpt lat="52.222725" lon="10.517654">
        <ele>74.651014</ele>
        <time>2026-08-19T08:44:39.771Z</time>
      </trkpt>
      <trkpt lat="52.222834" lon="10.517107">
        <ele>74.734131</ele>
        <time>2026-08-19T08:44:50.181Z</time>
      </trkpt>
      <trkpt lat="52.222725" lon="10.517654">
        <ele>74.701050</ele>
        <time>2026-08-19T08:45:00.386Z</time>
      </trkpt>
      <trkpt lat="52.222672" lon="10.517778">
        <ele>74.681276</ele>
        <time>2026-08-19T08:45:03.048Z</time>
      </trkpt>
      <trkpt lat="52.222505" lon="10.517960">
        <ele>74.638407</ele>
        <time>2026-08-19T08:45:08.734Z</time>
      </trkpt>
      <trkpt lat="52.222437" lon="10.518212">
        <ele>74.602393</ele>
        <time>2026-08-19T08:45:13.489Z</time>
      </trkpt>
      <trkpt lat="52.222185" lon="10.519466">
        <ele>74.429789</ele>
        <time>2026-08-19T08:45:35.816Z</time>
      </trkpt>
      <trkpt lat="52.222188" lon="10.519564">
        <ele>74.416956</ele>
        <time>2026-08-19T08:45:37.487Z</time>
      </trkpt>
      <trkpt lat="52.221820" lon="10.519608">
        <ele>74.419522</ele>
        <time>2026-08-19T08:45:45.625Z</time>
      </trkpt>
      <trkpt lat="52.221403" lon="10.519650">
        <ele>74.543236</ele>
        <time>2026-08-19T08:45:55.240Z</time>
      </trkpt>
      <trkpt lat="52.221256" lon="10.519662">
        <ele>74.586819</ele>
        <time>2026-08-19T08:45:58.760Z</time>
      </trkpt>
      <trkpt lat="52.221038" lon="10.519654">
        <ele>74.651388</ele>
        <time>2026-08-19T08:46:04.050Z</time>
      </trkpt>
      <trkpt lat="52.220137" lon="10.519733">
        <ele>74.923284</ele>
        <time>2026-08-19T08:46:39.112Z</time>
      </trkpt>
      <trkpt lat="52.219865" lon="10.519761">
        <ele>75.031727</ele>
        <time>2026-08-19T08:46:50.068Z</time>
      </trkpt>
      <trkpt lat="52.219071" lon="10.519808">
        <ele>75.347864</ele>
        <time>2026-08-19T08:47:20.613Z</time>
      </trkpt>
      <trkpt lat="52.218963" lon="10.519816">
        <ele>75.390882</ele>
        <time>2026-08-19T08:47:24.728Z</time>
      </trkpt>
      <trkpt lat="52.218874" lon="10.519834">
        <ele>75.426565</ele>
        <time>2026-08-19T08:47:28.108Z</time>
      </trkpt>
      <trkpt lat="52.218790" lon="10.519842">
        <ele>75.460045</ele>
        <time>2026-08-19T08:47:31.354Z</time>
      </trkpt>
      <trkpt lat="52.218484" lon="10.519876">
        <ele>75.582084</ele>
        <time>2026-08-19T08:47:43.201Z</time>
      </trkpt>
      <trkpt lat="52.218329" lon="10.519894">
        <ele>75.625727</ele>
        <time>2026-08-19T08:47:49.311Z</time>
      </trkpt>
      <trkpt lat="52.218291" lon="10.519899">
        <ele>75.629097</ele>
        <time>2026-08-19T08:47:50.785Z</time>
      </trkpt>
      <trkpt lat="52.217798" lon="10.520002">
        <ele>75.673024</ele>
        <time>2026-08-19T08:48:09.666Z</time>
      </trkpt>
      <trkpt lat="52.217245" lon="10.520069">
        <ele>75.722032</ele>
        <time>2026-08-19T08:48:29.953Z</time>
      </trkpt>
      <trkpt lat="52.216756" lon="10.520124">
        <ele>75.765352</ele>
        <time>2026-08-19T08:48:48.462Z</time>
      </trkpt>
      <trkpt lat="52.216687" lon="10.520132">
        <ele>75.771466</ele>
        <time>2026-08-19T08:48:51.051Z</time>
      </trkpt>
      <trkpt lat="52.215361" lon="10.520292">
        <ele>75.644301</ele>
        <time>2026-08-19T08:49:39.651Z</time>
      </trkpt>
      <trkpt lat="52.215240" lon="10.520303">
        <ele>75.631074</ele>
        <time>2026-08-19T08:49:44.046Z</time>
      </trkpt>
      <trkpt lat="52.214592" lon="10.520390">
        <ele>75.588431</ele>
        <time>2026-08-19T08:50:07.622Z</time>
      </trkpt>
      <trkpt lat="52.214357" lon="10.520470">
        <ele>75.594380</ele>
        <time>2026-08-19T08:50:16.677Z</time>
      </trkpt>
      <trkpt lat="52.214034" lon="10.520733">
        <ele>75.603324</ele>
        <time>2026-08-19T08:50:30.120Z</time>
      </trkpt>
      <trkpt lat="52.213661" lon="10.521259">
        <ele>75.615540</ele>
        <time>2026-08-19T08:50:48.424Z</time>
      </trkpt>
      <trkpt lat="52.213483" lon="10.521475">
        <ele>75.621036</ele>
        <time>2026-08-19T08:50:56.579Z</time>
      </trkpt>
      <trkpt lat="52.213416" lon="10.521544">
        <ele>75.622999</ele>
        <time>2026-08-19T08:50:59.520Z</time>
      </trkpt>
      <trkpt lat="52.213124" lon="10.521855">
        <ele>75.627761</ele>
        <time>2026-08-19T08:51:12.823Z</time>
      </trkpt>
      <trkpt lat="52.212846" lon="10.522218">
        <ele>75.627761</ele>
        <time>2026-08-19T08:51:26.228Z</time>
      </trkpt>
      <trkpt lat="52.212789" lon="10.522293">
        <ele>75.627761</ele>
        <time>2026-08-19T08:51:28.974Z</time>
      </trkpt>
      <trkpt lat="52.212649" lon="10.522529">
        <ele>75.627761</ele>
        <time>2026-08-19T08:51:36.310Z</time>
      </trkpt>
      <trkpt lat="52.212567" lon="10.522603">
        <ele>75.627761</ele>
        <time>2026-08-19T08:51:39.691Z</time>
      </trkpt>
      <trkpt lat="52.212587" lon="10.522722">
        <ele>75.627761</ele>
        <time>2026-08-19T08:51:41.240Z</time>
      </trkpt>
      <trkpt lat="52.212609" lon="10.522849">
        <ele>75.627761</ele>
        <time>2026-08-19T08:51:42.962Z</time>
      </trkpt>
      <trkpt lat="52.212618" lon="10.522844">
        <ele>75.627761</ele>
        <time>2026-08-19T08:51:43.320Z</time>
      </trkpt>
    </trkseg>
  </trk>
</gpx>